<?xml version="1.0" encoding="UTF-8" standalone="no" ?>
<gpx xmlns="http://www.topografix.com/GPX/1/1" xmlns:xsi="http://www.w3.org/2001/XMLSchema-instance" xsi:schemaLocation="http://www.topografix.com/GPX/1/1 http://www.topografix.com/GPX/1/1/gpx.xsd" version="1.1" creator="VisuGPX - https://www.visugpx.com">
  <metadata>
    <name>Bozouls</name>
    <desc><![CDATA[File with points/tracks from LocusWorld/]]></desc>
  </metadata>
  <trk>
    <name><![CDATA[2021-11-18 11:42]]></name>
    <extensions>
      <line xmlns="http://www.topografix.com/GPX/gpx_style/0/2">
        <color>FF0000</color>
        <opacity>0.78</opacity>
        <width>3.0</width>
      </line>
    </extensions>
    <trkseg>
      <trkpt lat="44.47056" lon="2.72246">
        <ele>544.36</ele>
        <time>2021-11-18T10:42:30.000Z</time>
      </trkpt>
      <trkpt lat="44.47057" lon="2.72246">
        <ele>552.07</ele>
        <time>2021-11-18T10:43:34.000Z</time>
      </trkpt>
      <trkpt lat="44.47057" lon="2.72248">
        <ele>536.33</ele>
        <time>2021-11-18T10:43:46.000Z</time>
      </trkpt>
      <trkpt lat="44.47058" lon="2.72256">
        <ele>541.38</ele>
        <time>2021-11-18T10:43:56.000Z</time>
      </trkpt>
      <trkpt lat="44.47057" lon="2.72256">
        <ele>535.35</ele>
        <time>2021-11-18T10:44:43.000Z</time>
      </trkpt>
      <trkpt lat="44.47057" lon="2.72255">
        <ele>541.89</ele>
        <time>2021-11-18T10:45:52.000Z</time>
      </trkpt>
      <trkpt lat="44.47059" lon="2.72254">
        <ele>537.95</ele>
        <time>2021-11-18T10:46:02.000Z</time>
      </trkpt>
      <trkpt lat="44.4706" lon="2.72254">
        <ele>541.11</ele>
        <time>2021-11-18T10:47:02.000Z</time>
      </trkpt>
      <trkpt lat="44.47063" lon="2.72254">
        <ele>546.74</ele>
        <time>2021-11-18T10:47:12.000Z</time>
      </trkpt>
      <trkpt lat="44.47058" lon="2.72255">
        <ele>531.79</ele>
        <time>2021-11-18T10:47:22.000Z</time>
      </trkpt>
      <trkpt lat="44.47058" lon="2.72256">
        <ele>550.61</ele>
        <time>2021-11-18T10:47:59.000Z</time>
      </trkpt>
      <trkpt lat="44.47057" lon="2.72256">
        <ele>536.47</ele>
        <time>2021-11-18T10:48:27.000Z</time>
      </trkpt>
      <trkpt lat="44.47056" lon="2.72255">
        <ele>546.34</ele>
        <time>2021-11-18T10:48:49.665Z</time>
      </trkpt>
      <trkpt lat="44.47065" lon="2.72251">
        <ele>547.17</ele>
        <time>2021-11-18T10:48:59.569Z</time>
      </trkpt>
      <trkpt lat="44.47067" lon="2.72244">
        <ele>560.47</ele>
        <time>2021-11-18T10:49:08.735Z</time>
      </trkpt>
      <trkpt lat="44.4707" lon="2.72241">
        <ele>567.02</ele>
        <time>2021-11-18T10:49:18.000Z</time>
      </trkpt>
      <trkpt lat="44.47069" lon="2.72243">
        <ele>556.45</ele>
        <time>2021-11-18T10:49:28.000Z</time>
      </trkpt>
      <trkpt lat="44.47069" lon="2.72241">
        <ele>560.55</ele>
        <time>2021-11-18T10:49:52.000Z</time>
      </trkpt>
      <trkpt lat="44.47071" lon="2.72236">
        <ele>559.36</ele>
        <time>2021-11-18T10:50:02.000Z</time>
      </trkpt>
      <trkpt lat="44.47074" lon="2.72228">
        <ele>550.7</ele>
        <time>2021-11-18T10:50:11.597Z</time>
      </trkpt>
      <trkpt lat="44.47076" lon="2.72224">
        <ele>559.3</ele>
        <time>2021-11-18T10:50:21.000Z</time>
      </trkpt>
      <trkpt lat="44.47079" lon="2.72216">
        <ele>555.41</ele>
        <time>2021-11-18T10:50:30.338Z</time>
      </trkpt>
      <trkpt lat="44.47081" lon="2.72206">
        <ele>563.05</ele>
        <time>2021-11-18T10:50:39.778Z</time>
      </trkpt>
      <trkpt lat="44.47076" lon="2.72193">
        <ele>541.36</ele>
        <time>2021-11-18T10:50:50.000Z</time>
      </trkpt>
      <trkpt lat="44.47066" lon="2.72187">
        <ele>556.77</ele>
        <time>2021-11-18T10:50:59.258Z</time>
      </trkpt>
      <trkpt lat="44.47057" lon="2.72173">
        <ele>557.32</ele>
        <time>2021-11-18T10:51:08.817Z</time>
      </trkpt>
      <trkpt lat="44.47054" lon="2.72166">
        <ele>548.96</ele>
        <time>2021-11-18T10:51:18.000Z</time>
      </trkpt>
      <trkpt lat="44.47049" lon="2.72156">
        <ele>545.94</ele>
        <time>2021-11-18T10:51:27.396Z</time>
      </trkpt>
      <trkpt lat="44.47041" lon="2.72147">
        <ele>539.78</ele>
        <time>2021-11-18T10:51:36.878Z</time>
      </trkpt>
      <trkpt lat="44.47034" lon="2.72136">
        <ele>537.06</ele>
        <time>2021-11-18T10:51:46.838Z</time>
      </trkpt>
      <trkpt lat="44.47025" lon="2.72125">
        <ele>540.11</ele>
        <time>2021-11-18T10:51:56.438Z</time>
      </trkpt>
      <trkpt lat="44.47016" lon="2.7212">
        <ele>550.44</ele>
        <time>2021-11-18T10:52:05.937Z</time>
      </trkpt>
      <trkpt lat="44.47008" lon="2.7211">
        <ele>544.36</ele>
        <time>2021-11-18T10:52:16.000Z</time>
      </trkpt>
      <trkpt lat="44.47002" lon="2.72095">
        <ele>550.69</ele>
        <time>2021-11-18T10:52:25.536Z</time>
      </trkpt>
      <trkpt lat="44.46996" lon="2.72083">
        <ele>544.91</ele>
        <time>2021-11-18T10:52:34.928Z</time>
      </trkpt>
      <trkpt lat="44.46989" lon="2.72072">
        <ele>552.39</ele>
        <time>2021-11-18T10:52:45.000Z</time>
      </trkpt>
      <trkpt lat="44.46986" lon="2.72058">
        <ele>534.98</ele>
        <time>2021-11-18T10:52:54.977Z</time>
      </trkpt>
      <trkpt lat="44.46989" lon="2.72046">
        <ele>554.77</ele>
        <time>2021-11-18T10:53:04.416Z</time>
      </trkpt>
      <trkpt lat="44.46992" lon="2.72031">
        <ele>546.4</ele>
        <time>2021-11-18T10:53:15.000Z</time>
      </trkpt>
      <trkpt lat="44.46989" lon="2.72022">
        <ele>543.67</ele>
        <time>2021-11-18T10:53:25.000Z</time>
      </trkpt>
      <trkpt lat="44.4699" lon="2.7201">
        <ele>557.66</ele>
        <time>2021-11-18T10:53:35.000Z</time>
      </trkpt>
      <trkpt lat="44.46991" lon="2.71995">
        <ele>539.51</ele>
        <time>2021-11-18T10:53:44.856Z</time>
      </trkpt>
      <trkpt lat="44.46995" lon="2.71986">
        <ele>551.38</ele>
        <time>2021-11-18T10:53:54.000Z</time>
      </trkpt>
      <trkpt lat="44.47002" lon="2.71974">
        <ele>550.24</ele>
        <time>2021-11-18T10:54:05.000Z</time>
      </trkpt>
      <trkpt lat="44.47003" lon="2.71971">
        <ele>553.46</ele>
        <time>2021-11-18T10:54:15.000Z</time>
      </trkpt>
      <trkpt lat="44.47004" lon="2.7197">
        <ele>544.74</ele>
        <time>2021-11-18T10:54:25.000Z</time>
      </trkpt>
      <trkpt lat="44.47005" lon="2.71968">
        <ele>549.96</ele>
        <time>2021-11-18T10:55:21.000Z</time>
      </trkpt>
      <trkpt lat="44.47008" lon="2.71968">
        <ele>540.05</ele>
        <time>2021-11-18T10:55:31.000Z</time>
      </trkpt>
      <trkpt lat="44.47008" lon="2.71968">
        <ele>544</ele>
        <time>2021-11-18T10:55:49.000Z</time>
      </trkpt>
      <trkpt lat="44.47009" lon="2.71966">
        <ele>545.51</ele>
        <time>2021-11-18T10:55:59.000Z</time>
      </trkpt>
      <trkpt lat="44.47011" lon="2.71967">
        <ele>533.49</ele>
        <time>2021-11-18T10:56:13.000Z</time>
      </trkpt>
      <trkpt lat="44.47009" lon="2.71968">
        <ele>539.33</ele>
        <time>2021-11-18T10:56:22.636Z</time>
      </trkpt>
      <trkpt lat="44.47009" lon="2.7197">
        <ele>543.26</ele>
        <time>2021-11-18T10:56:32.000Z</time>
      </trkpt>
      <trkpt lat="44.47009" lon="2.71971">
        <ele>542.42</ele>
        <time>2021-11-18T10:56:42.000Z</time>
      </trkpt>
      <trkpt lat="44.4701" lon="2.71972">
        <ele>546.54</ele>
        <time>2021-11-18T10:57:17.000Z</time>
      </trkpt>
      <trkpt lat="44.47011" lon="2.71972">
        <ele>553.47</ele>
        <time>2021-11-18T10:57:49.000Z</time>
      </trkpt>
      <trkpt lat="44.47012" lon="2.71971">
        <ele>543.81</ele>
        <time>2021-11-18T10:59:12.000Z</time>
      </trkpt>
      <trkpt lat="44.47011" lon="2.7197">
        <ele>557.19</ele>
        <time>2021-11-18T11:00:20.000Z</time>
      </trkpt>
      <trkpt lat="44.47012" lon="2.71967">
        <ele>546.26</ele>
        <time>2021-11-18T11:00:30.000Z</time>
      </trkpt>
      <trkpt lat="44.47013" lon="2.71964">
        <ele>554.78</ele>
        <time>2021-11-18T11:00:40.000Z</time>
      </trkpt>
      <trkpt lat="44.47012" lon="2.71962">
        <ele>542.18</ele>
        <time>2021-11-18T11:00:50.000Z</time>
      </trkpt>
      <trkpt lat="44.4701" lon="2.71962">
        <ele>545.07</ele>
        <time>2021-11-18T11:01:00.000Z</time>
      </trkpt>
      <trkpt lat="44.47014" lon="2.71966">
        <ele>540.08</ele>
        <time>2021-11-18T11:01:10.000Z</time>
      </trkpt>
      <trkpt lat="44.47013" lon="2.71967">
        <ele>551.71</ele>
        <time>2021-11-18T11:01:20.000Z</time>
      </trkpt>
      <trkpt lat="44.47013" lon="2.71966">
        <ele>560.2</ele>
        <time>2021-11-18T11:01:39.000Z</time>
      </trkpt>
      <trkpt lat="44.47014" lon="2.71966">
        <ele>538.86</ele>
        <time>2021-11-18T11:02:02.000Z</time>
      </trkpt>
      <trkpt lat="44.47013" lon="2.71966">
        <ele>545.64</ele>
        <time>2021-11-18T11:02:13.000Z</time>
      </trkpt>
      <trkpt lat="44.47012" lon="2.71967">
        <ele>549.4</ele>
        <time>2021-11-18T11:02:23.000Z</time>
      </trkpt>
      <trkpt lat="44.47012" lon="2.71965">
        <ele>546.55</ele>
        <time>2021-11-18T11:02:50.000Z</time>
      </trkpt>
      <trkpt lat="44.47011" lon="2.71965">
        <ele>532.27</ele>
        <time>2021-11-18T11:03:17.000Z</time>
      </trkpt>
      <trkpt lat="44.47001" lon="2.71965">
        <ele>550.53</ele>
        <time>2021-11-18T11:03:26.576Z</time>
      </trkpt>
      <trkpt lat="44.46997" lon="2.71956">
        <ele>545.01</ele>
        <time>2021-11-18T11:03:36.717Z</time>
      </trkpt>
      <trkpt lat="44.46996" lon="2.71955">
        <ele>554.23</ele>
        <time>2021-11-18T11:03:48.000Z</time>
      </trkpt>
      <trkpt lat="44.46995" lon="2.71955">
        <ele>546.23</ele>
        <time>2021-11-18T11:03:58.000Z</time>
      </trkpt>
      <trkpt lat="44.46993" lon="2.71952">
        <ele>550.26</ele>
        <time>2021-11-18T11:04:12.696Z</time>
      </trkpt>
      <trkpt lat="44.46986" lon="2.71943">
        <ele>544.14</ele>
        <time>2021-11-18T11:04:22.657Z</time>
      </trkpt>
      <trkpt lat="44.4698" lon="2.71937">
        <ele>560.69</ele>
        <time>2021-11-18T11:04:31.736Z</time>
      </trkpt>
      <trkpt lat="44.46972" lon="2.71931">
        <ele>553.13</ele>
        <time>2021-11-18T11:04:40.878Z</time>
      </trkpt>
      <trkpt lat="44.46968" lon="2.71925">
        <ele>544.71</ele>
        <time>2021-11-18T11:04:50.000Z</time>
      </trkpt>
      <trkpt lat="44.46965" lon="2.71921">
        <ele>554.06</ele>
        <time>2021-11-18T11:04:59.536Z</time>
      </trkpt>
      <trkpt lat="44.4696" lon="2.71905">
        <ele>564.6</ele>
        <time>2021-11-18T11:05:08.738Z</time>
      </trkpt>
      <trkpt lat="44.46952" lon="2.71896">
        <ele>555.13</ele>
        <time>2021-11-18T11:05:18.000Z</time>
      </trkpt>
      <trkpt lat="44.46942" lon="2.71886">
        <ele>538.26</ele>
        <time>2021-11-18T11:05:27.001Z</time>
      </trkpt>
      <trkpt lat="44.46935" lon="2.71869">
        <ele>547.74</ele>
        <time>2021-11-18T11:05:36.717Z</time>
      </trkpt>
      <trkpt lat="44.46932" lon="2.71857">
        <ele>526.88</ele>
        <time>2021-11-18T11:05:47.000Z</time>
      </trkpt>
      <trkpt lat="44.46931" lon="2.71845">
        <ele>532.09</ele>
        <time>2021-11-18T11:05:58.000Z</time>
      </trkpt>
      <trkpt lat="44.4694" lon="2.7184">
        <ele>531.77</ele>
        <time>2021-11-18T11:06:07.676Z</time>
      </trkpt>
      <trkpt lat="44.46946" lon="2.71845">
        <ele>535.98</ele>
        <time>2021-11-18T11:06:16.836Z</time>
      </trkpt>
      <trkpt lat="44.46954" lon="2.71853">
        <ele>513.97</ele>
        <time>2021-11-18T11:06:26.376Z</time>
      </trkpt>
      <trkpt lat="44.46957" lon="2.71845">
        <ele>527.2</ele>
        <time>2021-11-18T11:06:35.677Z</time>
      </trkpt>
      <trkpt lat="44.46953" lon="2.71834">
        <ele>529.26</ele>
        <time>2021-11-18T11:06:44.860Z</time>
      </trkpt>
      <trkpt lat="44.4695" lon="2.71824">
        <ele>509.23</ele>
        <time>2021-11-18T11:06:53.876Z</time>
      </trkpt>
      <trkpt lat="44.46949" lon="2.71816">
        <ele>526.04</ele>
        <time>2021-11-18T11:07:05.000Z</time>
      </trkpt>
      <trkpt lat="44.46948" lon="2.71815">
        <ele>506.32</ele>
        <time>2021-11-18T11:07:15.000Z</time>
      </trkpt>
      <trkpt lat="44.46947" lon="2.71812">
        <ele>513.11</ele>
        <time>2021-11-18T11:07:24.517Z</time>
      </trkpt>
      <trkpt lat="44.46939" lon="2.71806">
        <ele>527.79</ele>
        <time>2021-11-18T11:07:33.917Z</time>
      </trkpt>
      <trkpt lat="44.46936" lon="2.71798">
        <ele>520.02</ele>
        <time>2021-11-18T11:07:44.000Z</time>
      </trkpt>
      <trkpt lat="44.46932" lon="2.71797">
        <ele>506.63</ele>
        <time>2021-11-18T11:07:54.000Z</time>
      </trkpt>
      <trkpt lat="44.46931" lon="2.71797">
        <ele>507.55</ele>
        <time>2021-11-18T11:08:21.000Z</time>
      </trkpt>
      <trkpt lat="44.46924" lon="2.71792">
        <ele>515.57</ele>
        <time>2021-11-18T11:08:30.260Z</time>
      </trkpt>
      <trkpt lat="44.46919" lon="2.71786">
        <ele>510.03</ele>
        <time>2021-11-18T11:08:39.657Z</time>
      </trkpt>
      <trkpt lat="44.46913" lon="2.71786">
        <ele>501.02</ele>
        <time>2021-11-18T11:08:50.000Z</time>
      </trkpt>
      <trkpt lat="44.46912" lon="2.71784">
        <ele>503.93</ele>
        <time>2021-11-18T11:09:00.000Z</time>
      </trkpt>
      <trkpt lat="44.46912" lon="2.71781">
        <ele>501.93</ele>
        <time>2021-11-18T11:09:10.000Z</time>
      </trkpt>
      <trkpt lat="44.46912" lon="2.7178">
        <ele>499.99</ele>
        <time>2021-11-18T11:09:47.000Z</time>
      </trkpt>
      <trkpt lat="44.46913" lon="2.71779">
        <ele>520.81</ele>
        <time>2021-11-18T11:09:58.000Z</time>
      </trkpt>
      <trkpt lat="44.4692" lon="2.71773">
        <ele>499.7</ele>
        <time>2021-11-18T11:10:07.736Z</time>
      </trkpt>
      <trkpt lat="44.46932" lon="2.71766">
        <ele>505.27</ele>
        <time>2021-11-18T11:10:16.958Z</time>
      </trkpt>
      <trkpt lat="44.46942" lon="2.71763">
        <ele>511.24</ele>
        <time>2021-11-18T11:10:26.656Z</time>
      </trkpt>
      <trkpt lat="44.46954" lon="2.71764">
        <ele>507.37</ele>
        <time>2021-11-18T11:10:37.000Z</time>
      </trkpt>
      <trkpt lat="44.46963" lon="2.71772">
        <ele>498.06</ele>
        <time>2021-11-18T11:10:47.000Z</time>
      </trkpt>
      <trkpt lat="44.46974" lon="2.71783">
        <ele>520.18</ele>
        <time>2021-11-18T11:10:56.697Z</time>
      </trkpt>
      <trkpt lat="44.46982" lon="2.71792">
        <ele>509.81</ele>
        <time>2021-11-18T11:11:06.477Z</time>
      </trkpt>
      <trkpt lat="44.46988" lon="2.71801">
        <ele>508.57</ele>
        <time>2021-11-18T11:11:15.537Z</time>
      </trkpt>
      <trkpt lat="44.46995" lon="2.71811">
        <ele>514.89</ele>
        <time>2021-11-18T11:11:24.577Z</time>
      </trkpt>
      <trkpt lat="44.46999" lon="2.71815">
        <ele>506.94</ele>
        <time>2021-11-18T11:11:34.000Z</time>
      </trkpt>
      <trkpt lat="44.46996" lon="2.71821">
        <ele>509.12</ele>
        <time>2021-11-18T11:11:45.000Z</time>
      </trkpt>
      <trkpt lat="44.47" lon="2.71823">
        <ele>511.1</ele>
        <time>2021-11-18T11:11:55.000Z</time>
      </trkpt>
      <trkpt lat="44.47004" lon="2.71829">
        <ele>494.28</ele>
        <time>2021-11-18T11:12:04.697Z</time>
      </trkpt>
      <trkpt lat="44.47007" lon="2.71841">
        <ele>498.62</ele>
        <time>2021-11-18T11:12:14.000Z</time>
      </trkpt>
      <trkpt lat="44.47011" lon="2.71854">
        <ele>503.48</ele>
        <time>2021-11-18T11:12:23.517Z</time>
      </trkpt>
      <trkpt lat="44.47014" lon="2.71868">
        <ele>500.98</ele>
        <time>2021-11-18T11:12:32.797Z</time>
      </trkpt>
      <trkpt lat="44.47018" lon="2.71878">
        <ele>487.56</ele>
        <time>2021-11-18T11:12:42.000Z</time>
      </trkpt>
      <trkpt lat="44.47022" lon="2.71879">
        <ele>486.81</ele>
        <time>2021-11-18T11:12:51.736Z</time>
      </trkpt>
      <trkpt lat="44.47021" lon="2.7187">
        <ele>490.09</ele>
        <time>2021-11-18T11:13:00.896Z</time>
      </trkpt>
      <trkpt lat="44.47022" lon="2.71864">
        <ele>485.38</ele>
        <time>2021-11-18T11:13:12.000Z</time>
      </trkpt>
      <trkpt lat="44.47026" lon="2.71851">
        <ele>497.91</ele>
        <time>2021-11-18T11:13:21.417Z</time>
      </trkpt>
      <trkpt lat="44.47033" lon="2.71839">
        <ele>497.43</ele>
        <time>2021-11-18T11:13:30.837Z</time>
      </trkpt>
      <trkpt lat="44.47041" lon="2.71835">
        <ele>496.68</ele>
        <time>2021-11-18T11:13:40.256Z</time>
      </trkpt>
      <trkpt lat="44.47049" lon="2.71833">
        <ele>503.23</ele>
        <time>2021-11-18T11:13:49.476Z</time>
      </trkpt>
      <trkpt lat="44.47049" lon="2.7183">
        <ele>504.35</ele>
        <time>2021-11-18T11:13:59.000Z</time>
      </trkpt>
      <trkpt lat="44.47051" lon="2.71831">
        <ele>492.11</ele>
        <time>2021-11-18T11:14:16.000Z</time>
      </trkpt>
      <trkpt lat="44.47059" lon="2.71832">
        <ele>474.41</ele>
        <time>2021-11-18T11:14:26.000Z</time>
      </trkpt>
      <trkpt lat="44.47067" lon="2.71832">
        <ele>484.55</ele>
        <time>2021-11-18T11:14:35.578Z</time>
      </trkpt>
      <trkpt lat="44.47074" lon="2.71836">
        <ele>487.34</ele>
        <time>2021-11-18T11:14:44.697Z</time>
      </trkpt>
      <trkpt lat="44.47073" lon="2.71836">
        <ele>482.61</ele>
        <time>2021-11-18T11:14:54.000Z</time>
      </trkpt>
      <trkpt lat="44.47073" lon="2.71835">
        <ele>488.21</ele>
        <time>2021-11-18T11:15:07.000Z</time>
      </trkpt>
      <trkpt lat="44.47077" lon="2.71844">
        <ele>487.28</ele>
        <time>2021-11-18T11:15:16.942Z</time>
      </trkpt>
      <trkpt lat="44.47082" lon="2.7185">
        <ele>497.4</ele>
        <time>2021-11-18T11:15:26.697Z</time>
      </trkpt>
      <trkpt lat="44.47084" lon="2.71854">
        <ele>498.23</ele>
        <time>2021-11-18T11:15:37.000Z</time>
      </trkpt>
      <trkpt lat="44.47083" lon="2.71855">
        <ele>499.79</ele>
        <time>2021-11-18T11:16:33.000Z</time>
      </trkpt>
      <trkpt lat="44.47084" lon="2.71856">
        <ele>498.55</ele>
        <time>2021-11-18T11:16:45.000Z</time>
      </trkpt>
      <trkpt lat="44.4709" lon="2.71861">
        <ele>505.23</ele>
        <time>2021-11-18T11:16:54.416Z</time>
      </trkpt>
      <trkpt lat="44.47095" lon="2.71871">
        <ele>485.3</ele>
        <time>2021-11-18T11:17:03.597Z</time>
      </trkpt>
      <trkpt lat="44.47102" lon="2.71878">
        <ele>496.27</ele>
        <time>2021-11-18T11:17:13.000Z</time>
      </trkpt>
      <trkpt lat="44.4711" lon="2.71886">
        <ele>496.95</ele>
        <time>2021-11-18T11:17:22.296Z</time>
      </trkpt>
      <trkpt lat="44.47117" lon="2.71891">
        <ele>489.09</ele>
        <time>2021-11-18T11:17:31.616Z</time>
      </trkpt>
      <trkpt lat="44.47118" lon="2.71889">
        <ele>503.62</ele>
        <time>2021-11-18T11:17:42.000Z</time>
      </trkpt>
      <trkpt lat="44.47121" lon="2.7189">
        <ele>493.83</ele>
        <time>2021-11-18T11:17:52.000Z</time>
      </trkpt>
      <trkpt lat="44.47124" lon="2.7189">
        <ele>490.11</ele>
        <time>2021-11-18T11:18:02.000Z</time>
      </trkpt>
      <trkpt lat="44.47131" lon="2.71892">
        <ele>488.43</ele>
        <time>2021-11-18T11:18:12.000Z</time>
      </trkpt>
      <trkpt lat="44.47136" lon="2.71894">
        <ele>483.39</ele>
        <time>2021-11-18T11:18:22.000Z</time>
      </trkpt>
      <trkpt lat="44.47138" lon="2.71893">
        <ele>489.82</ele>
        <time>2021-11-18T11:18:31.256Z</time>
      </trkpt>
      <trkpt lat="44.47148" lon="2.71891">
        <ele>490.02</ele>
        <time>2021-11-18T11:18:40.757Z</time>
      </trkpt>
      <trkpt lat="44.47158" lon="2.71891">
        <ele>503.14</ele>
        <time>2021-11-18T11:18:50.477Z</time>
      </trkpt>
      <trkpt lat="44.47164" lon="2.71891">
        <ele>498.44</ele>
        <time>2021-11-18T11:19:00.000Z</time>
      </trkpt>
      <trkpt lat="44.47165" lon="2.7189">
        <ele>512.05</ele>
        <time>2021-11-18T11:19:42.000Z</time>
      </trkpt>
      <trkpt lat="44.47168" lon="2.71888">
        <ele>482.58</ele>
        <time>2021-11-18T11:19:52.000Z</time>
      </trkpt>
      <trkpt lat="44.47175" lon="2.71881">
        <ele>494.97</ele>
        <time>2021-11-18T11:20:02.000Z</time>
      </trkpt>
      <trkpt lat="44.47187" lon="2.71874">
        <ele>485.02</ele>
        <time>2021-11-18T11:20:12.000Z</time>
      </trkpt>
      <trkpt lat="44.47198" lon="2.71867">
        <ele>511.87</ele>
        <time>2021-11-18T11:20:21.776Z</time>
      </trkpt>
      <trkpt lat="44.47205" lon="2.71859">
        <ele>500.95</ele>
        <time>2021-11-18T11:20:31.000Z</time>
      </trkpt>
      <trkpt lat="44.47212" lon="2.7185">
        <ele>511.83</ele>
        <time>2021-11-18T11:20:40.237Z</time>
      </trkpt>
      <trkpt lat="44.47218" lon="2.7184">
        <ele>497.93</ele>
        <time>2021-11-18T11:20:49.517Z</time>
      </trkpt>
      <trkpt lat="44.47226" lon="2.71824">
        <ele>503.12</ele>
        <time>2021-11-18T11:20:59.557Z</time>
      </trkpt>
      <trkpt lat="44.47232" lon="2.71812">
        <ele>478.72</ele>
        <time>2021-11-18T11:21:09.000Z</time>
      </trkpt>
      <trkpt lat="44.47236" lon="2.71796">
        <ele>488.4</ele>
        <time>2021-11-18T11:21:18.876Z</time>
      </trkpt>
      <trkpt lat="44.47242" lon="2.71783">
        <ele>496.51</ele>
        <time>2021-11-18T11:21:29.000Z</time>
      </trkpt>
      <trkpt lat="44.47246" lon="2.71771">
        <ele>492.46</ele>
        <time>2021-11-18T11:21:39.000Z</time>
      </trkpt>
      <trkpt lat="44.4725" lon="2.71761">
        <ele>496.76</ele>
        <time>2021-11-18T11:21:48.446Z</time>
      </trkpt>
      <trkpt lat="44.47252" lon="2.71747">
        <ele>485.18</ele>
        <time>2021-11-18T11:21:57.576Z</time>
      </trkpt>
      <trkpt lat="44.4725" lon="2.71739">
        <ele>495.69</ele>
        <time>2021-11-18T11:22:07.138Z</time>
      </trkpt>
      <trkpt lat="44.47251" lon="2.71729">
        <ele>457.03</ele>
        <time>2021-11-18T11:22:16.143Z</time>
      </trkpt>
      <trkpt lat="44.47245" lon="2.71721">
        <ele>476.6</ele>
        <time>2021-11-18T11:22:26.000Z</time>
      </trkpt>
      <trkpt lat="44.47238" lon="2.71724">
        <ele>489.8</ele>
        <time>2021-11-18T11:22:36.000Z</time>
      </trkpt>
      <trkpt lat="44.47235" lon="2.71723">
        <ele>475.53</ele>
        <time>2021-11-18T11:22:45.336Z</time>
      </trkpt>
      <trkpt lat="44.47233" lon="2.71719">
        <ele>472.56</ele>
        <time>2021-11-18T11:22:55.000Z</time>
      </trkpt>
      <trkpt lat="44.4723" lon="2.71723">
        <ele>470.45</ele>
        <time>2021-11-18T11:23:04.757Z</time>
      </trkpt>
      <trkpt lat="44.47227" lon="2.71713">
        <ele>459.04</ele>
        <time>2021-11-18T11:23:15.000Z</time>
      </trkpt>
      <trkpt lat="44.4722" lon="2.71714">
        <ele>460.91</ele>
        <time>2021-11-18T11:23:25.000Z</time>
      </trkpt>
      <trkpt lat="44.47222" lon="2.7172">
        <ele>458.09</ele>
        <time>2021-11-18T11:23:35.000Z</time>
      </trkpt>
      <trkpt lat="44.47217" lon="2.71715">
        <ele>464.11</ele>
        <time>2021-11-18T11:23:45.000Z</time>
      </trkpt>
      <trkpt lat="44.47217" lon="2.71713">
        <ele>468.97</ele>
        <time>2021-11-18T11:24:24.000Z</time>
      </trkpt>
      <trkpt lat="44.47213" lon="2.71711">
        <ele>472.82</ele>
        <time>2021-11-18T11:24:33.092Z</time>
      </trkpt>
      <trkpt lat="44.47212" lon="2.71711">
        <ele>472.83</ele>
        <time>2021-11-18T11:24:43.000Z</time>
      </trkpt>
      <trkpt lat="44.47211" lon="2.71712">
        <ele>466.46</ele>
        <time>2021-11-18T11:25:14.000Z</time>
      </trkpt>
      <trkpt lat="44.4721" lon="2.71709">
        <ele>458.52</ele>
        <time>2021-11-18T11:25:24.000Z</time>
      </trkpt>
      <trkpt lat="44.47206" lon="2.71709">
        <ele>461.19</ele>
        <time>2021-11-18T11:25:34.000Z</time>
      </trkpt>
      <trkpt lat="44.47205" lon="2.71708">
        <ele>454.61</ele>
        <time>2021-11-18T11:25:46.000Z</time>
      </trkpt>
      <trkpt lat="44.47195" lon="2.71708">
        <ele>454.56</ele>
        <time>2021-11-18T11:25:55.554Z</time>
      </trkpt>
      <trkpt lat="44.47184" lon="2.71705">
        <ele>464.99</ele>
        <time>2021-11-18T11:26:04.594Z</time>
      </trkpt>
      <trkpt lat="44.47172" lon="2.71701">
        <ele>463.41</ele>
        <time>2021-11-18T11:26:13.854Z</time>
      </trkpt>
      <trkpt lat="44.47164" lon="2.71703">
        <ele>458.34</ele>
        <time>2021-11-18T11:26:23.000Z</time>
      </trkpt>
      <trkpt lat="44.47162" lon="2.71697">
        <ele>447.27</ele>
        <time>2021-11-18T11:26:33.000Z</time>
      </trkpt>
      <trkpt lat="44.47148" lon="2.71704">
        <ele>477.44</ele>
        <time>2021-11-18T11:26:43.000Z</time>
      </trkpt>
      <trkpt lat="44.47136" lon="2.71697">
        <ele>454.68</ele>
        <time>2021-11-18T11:26:53.000Z</time>
      </trkpt>
      <trkpt lat="44.47121" lon="2.71687">
        <ele>474.93</ele>
        <time>2021-11-18T11:27:02.088Z</time>
      </trkpt>
      <trkpt lat="44.47113" lon="2.71689">
        <ele>468.91</ele>
        <time>2021-11-18T11:27:12.090Z</time>
      </trkpt>
      <trkpt lat="44.47105" lon="2.71686">
        <ele>472.45</ele>
        <time>2021-11-18T11:27:21.328Z</time>
      </trkpt>
      <trkpt lat="44.471" lon="2.71679">
        <ele>482.09</ele>
        <time>2021-11-18T11:27:31.132Z</time>
      </trkpt>
      <trkpt lat="44.47093" lon="2.71674">
        <ele>462.9</ele>
        <time>2021-11-18T11:27:41.146Z</time>
      </trkpt>
      <trkpt lat="44.47082" lon="2.71666">
        <ele>464.43</ele>
        <time>2021-11-18T11:27:51.139Z</time>
      </trkpt>
      <trkpt lat="44.47079" lon="2.71657">
        <ele>458.6</ele>
        <time>2021-11-18T11:28:00.150Z</time>
      </trkpt>
      <trkpt lat="44.47074" lon="2.71651">
        <ele>473.01</ele>
        <time>2021-11-18T11:28:09.377Z</time>
      </trkpt>
      <trkpt lat="44.47068" lon="2.71637">
        <ele>470.64</ele>
        <time>2021-11-18T11:28:20.000Z</time>
      </trkpt>
      <trkpt lat="44.47059" lon="2.71618">
        <ele>461.39</ele>
        <time>2021-11-18T11:28:29.631Z</time>
      </trkpt>
      <trkpt lat="44.47053" lon="2.71603">
        <ele>447.54</ele>
        <time>2021-11-18T11:28:38.834Z</time>
      </trkpt>
      <trkpt lat="44.47044" lon="2.716">
        <ele>479.4</ele>
        <time>2021-11-18T11:28:49.000Z</time>
      </trkpt>
      <trkpt lat="44.47047" lon="2.71576">
        <ele>468.59</ele>
        <time>2021-11-18T11:28:59.000Z</time>
      </trkpt>
      <trkpt lat="44.4705" lon="2.71556">
        <ele>461.57</ele>
        <time>2021-11-18T11:29:08.426Z</time>
      </trkpt>
      <trkpt lat="44.47046" lon="2.71544">
        <ele>462.02</ele>
        <time>2021-11-18T11:29:17.666Z</time>
      </trkpt>
      <trkpt lat="44.47051" lon="2.7154">
        <ele>460.05</ele>
        <time>2021-11-18T11:29:27.000Z</time>
      </trkpt>
      <trkpt lat="44.4705" lon="2.71531">
        <ele>470.09</ele>
        <time>2021-11-18T11:29:36.250Z</time>
      </trkpt>
      <trkpt lat="44.47051" lon="2.71519">
        <ele>458.96</ele>
        <time>2021-11-18T11:29:46.000Z</time>
      </trkpt>
      <trkpt lat="44.47049" lon="2.71522">
        <ele>477.46</ele>
        <time>2021-11-18T11:29:55.090Z</time>
      </trkpt>
      <trkpt lat="44.4705" lon="2.71514">
        <ele>455.64</ele>
        <time>2021-11-18T11:30:05.000Z</time>
      </trkpt>
      <trkpt lat="44.47052" lon="2.71514">
        <ele>455.57</ele>
        <time>2021-11-18T11:30:15.000Z</time>
      </trkpt>
      <trkpt lat="44.47052" lon="2.71516">
        <ele>470.45</ele>
        <time>2021-11-18T11:30:27.000Z</time>
      </trkpt>
      <trkpt lat="44.47055" lon="2.71519">
        <ele>479.21</ele>
        <time>2021-11-18T11:30:37.000Z</time>
      </trkpt>
      <trkpt lat="44.4705" lon="2.71518">
        <ele>461.67</ele>
        <time>2021-11-18T11:30:47.000Z</time>
      </trkpt>
      <trkpt lat="44.4705" lon="2.71511">
        <ele>463.98</ele>
        <time>2021-11-18T11:30:57.000Z</time>
      </trkpt>
      <trkpt lat="44.4705" lon="2.7149">
        <ele>480.05</ele>
        <time>2021-11-18T11:31:07.089Z</time>
      </trkpt>
      <trkpt lat="44.47054" lon="2.71475">
        <ele>467.56</ele>
        <time>2021-11-18T11:31:16.767Z</time>
      </trkpt>
      <trkpt lat="44.47056" lon="2.71457">
        <ele>465.96</ele>
        <time>2021-11-18T11:31:26.830Z</time>
      </trkpt>
      <trkpt lat="44.47058" lon="2.71444">
        <ele>478.34</ele>
        <time>2021-11-18T11:31:35.936Z</time>
      </trkpt>
      <trkpt lat="44.4706" lon="2.71428">
        <ele>492.41</ele>
        <time>2021-11-18T11:31:45.358Z</time>
      </trkpt>
      <trkpt lat="44.47062" lon="2.71416">
        <ele>475.83</ele>
        <time>2021-11-18T11:31:54.707Z</time>
      </trkpt>
      <trkpt lat="44.47066" lon="2.71405">
        <ele>476.78</ele>
        <time>2021-11-18T11:32:03.816Z</time>
      </trkpt>
      <trkpt lat="44.47068" lon="2.71393">
        <ele>474.86</ele>
        <time>2021-11-18T11:32:14.000Z</time>
      </trkpt>
      <trkpt lat="44.47069" lon="2.71378">
        <ele>484.16</ele>
        <time>2021-11-18T11:32:23.416Z</time>
      </trkpt>
      <trkpt lat="44.47077" lon="2.71363">
        <ele>483.79</ele>
        <time>2021-11-18T11:32:33.089Z</time>
      </trkpt>
      <trkpt lat="44.4708" lon="2.71345">
        <ele>471.76</ele>
        <time>2021-11-18T11:32:42.147Z</time>
      </trkpt>
      <trkpt lat="44.47077" lon="2.7134">
        <ele>465.59</ele>
        <time>2021-11-18T11:32:52.169Z</time>
      </trkpt>
      <trkpt lat="44.47079" lon="2.71327">
        <ele>466.11</ele>
        <time>2021-11-18T11:33:02.135Z</time>
      </trkpt>
      <trkpt lat="44.4708" lon="2.71311">
        <ele>464.56</ele>
        <time>2021-11-18T11:33:11.549Z</time>
      </trkpt>
      <trkpt lat="44.47073" lon="2.71299">
        <ele>473.64</ele>
        <time>2021-11-18T11:33:20.607Z</time>
      </trkpt>
      <trkpt lat="44.4707" lon="2.71282">
        <ele>484.77</ele>
        <time>2021-11-18T11:33:30.000Z</time>
      </trkpt>
      <trkpt lat="44.4707" lon="2.71272">
        <ele>469.04</ele>
        <time>2021-11-18T11:33:39.457Z</time>
      </trkpt>
      <trkpt lat="44.4707" lon="2.71261">
        <ele>448.62</ele>
        <time>2021-11-18T11:33:49.000Z</time>
      </trkpt>
      <trkpt lat="44.47069" lon="2.71255">
        <ele>463.77</ele>
        <time>2021-11-18T11:33:59.000Z</time>
      </trkpt>
      <trkpt lat="44.47068" lon="2.71258">
        <ele>464.25</ele>
        <time>2021-11-18T11:34:09.000Z</time>
      </trkpt>
      <trkpt lat="44.47069" lon="2.71256">
        <ele>460.59</ele>
        <time>2021-11-18T11:34:19.000Z</time>
      </trkpt>
      <trkpt lat="44.4707" lon="2.71257">
        <ele>461.36</ele>
        <time>2021-11-18T11:34:31.000Z</time>
      </trkpt>
      <trkpt lat="44.47071" lon="2.71257">
        <ele>443.91</ele>
        <time>2021-11-18T11:34:44.000Z</time>
      </trkpt>
      <trkpt lat="44.47071" lon="2.71253">
        <ele>453.5</ele>
        <time>2021-11-18T11:34:54.000Z</time>
      </trkpt>
      <trkpt lat="44.47067" lon="2.71236">
        <ele>448.31</ele>
        <time>2021-11-18T11:35:04.000Z</time>
      </trkpt>
      <trkpt lat="44.47065" lon="2.71235">
        <ele>454.26</ele>
        <time>2021-11-18T11:35:14.000Z</time>
      </trkpt>
      <trkpt lat="44.47063" lon="2.71232">
        <ele>448.51</ele>
        <time>2021-11-18T11:35:25.396Z</time>
      </trkpt>
      <trkpt lat="44.47062" lon="2.71223">
        <ele>445.47</ele>
        <time>2021-11-18T11:35:34.428Z</time>
      </trkpt>
      <trkpt lat="44.4706" lon="2.71216">
        <ele>456.8</ele>
        <time>2021-11-18T11:35:45.000Z</time>
      </trkpt>
      <trkpt lat="44.47058" lon="2.71215">
        <ele>449.23</ele>
        <time>2021-11-18T11:35:55.000Z</time>
      </trkpt>
      <trkpt lat="44.47051" lon="2.71216">
        <ele>466.94</ele>
        <time>2021-11-18T11:36:04.616Z</time>
      </trkpt>
      <trkpt lat="44.47044" lon="2.7121">
        <ele>454.19</ele>
        <time>2021-11-18T11:36:15.000Z</time>
      </trkpt>
      <trkpt lat="44.47042" lon="2.71205">
        <ele>451.29</ele>
        <time>2021-11-18T11:36:25.000Z</time>
      </trkpt>
      <trkpt lat="44.47032" lon="2.712">
        <ele>457.03</ele>
        <time>2021-11-18T11:36:34.437Z</time>
      </trkpt>
      <trkpt lat="44.47017" lon="2.71192">
        <ele>480.73</ele>
        <time>2021-11-18T11:36:45.000Z</time>
      </trkpt>
      <trkpt lat="44.46998" lon="2.71193">
        <ele>474.8</ele>
        <time>2021-11-18T11:36:55.000Z</time>
      </trkpt>
      <trkpt lat="44.46996" lon="2.71188">
        <ele>469.06</ele>
        <time>2021-11-18T11:37:05.000Z</time>
      </trkpt>
      <trkpt lat="44.46975" lon="2.71176">
        <ele>443.21</ele>
        <time>2021-11-18T11:37:15.000Z</time>
      </trkpt>
      <trkpt lat="44.46969" lon="2.71166">
        <ele>458.63</ele>
        <time>2021-11-18T11:37:25.000Z</time>
      </trkpt>
      <trkpt lat="44.46961" lon="2.71151">
        <ele>444.09</ele>
        <time>2021-11-18T11:37:35.000Z</time>
      </trkpt>
      <trkpt lat="44.46957" lon="2.71139">
        <ele>454.21</ele>
        <time>2021-11-18T11:37:45.000Z</time>
      </trkpt>
      <trkpt lat="44.46953" lon="2.71133">
        <ele>449.59</ele>
        <time>2021-11-18T11:37:55.000Z</time>
      </trkpt>
      <trkpt lat="44.46953" lon="2.71114">
        <ele>437.96</ele>
        <time>2021-11-18T11:38:04.455Z</time>
      </trkpt>
      <trkpt lat="44.4695" lon="2.71116">
        <ele>446.52</ele>
        <time>2021-11-18T11:38:14.000Z</time>
      </trkpt>
      <trkpt lat="44.46949" lon="2.71116">
        <ele>442.1</ele>
        <time>2021-11-18T11:38:26.000Z</time>
      </trkpt>
      <trkpt lat="44.46948" lon="2.71117">
        <ele>444.07</ele>
        <time>2021-11-18T11:38:36.000Z</time>
      </trkpt>
      <trkpt lat="44.46948" lon="2.71118">
        <ele>461.38</ele>
        <time>2021-11-18T11:38:46.000Z</time>
      </trkpt>
      <trkpt lat="44.46948" lon="2.71117">
        <ele>451.88</ele>
        <time>2021-11-18T11:38:59.000Z</time>
      </trkpt>
      <trkpt lat="44.46944" lon="2.71119">
        <ele>461.24</ele>
        <time>2021-11-18T11:39:09.000Z</time>
      </trkpt>
      <trkpt lat="44.46945" lon="2.71121">
        <ele>446.24</ele>
        <time>2021-11-18T11:39:20.000Z</time>
      </trkpt>
      <trkpt lat="44.4695" lon="2.71121">
        <ele>443.22</ele>
        <time>2021-11-18T11:39:30.000Z</time>
      </trkpt>
      <trkpt lat="44.46952" lon="2.71114">
        <ele>448.27</ele>
        <time>2021-11-18T11:39:40.000Z</time>
      </trkpt>
      <trkpt lat="44.46957" lon="2.711">
        <ele>450.13</ele>
        <time>2021-11-18T11:39:49.427Z</time>
      </trkpt>
      <trkpt lat="44.46963" lon="2.71089">
        <ele>449.42</ele>
        <time>2021-11-18T11:40:00.000Z</time>
      </trkpt>
      <trkpt lat="44.46972" lon="2.71082">
        <ele>456.96</ele>
        <time>2021-11-18T11:40:09.498Z</time>
      </trkpt>
      <trkpt lat="44.46983" lon="2.71072">
        <ele>450.14</ele>
        <time>2021-11-18T11:40:19.000Z</time>
      </trkpt>
      <trkpt lat="44.46991" lon="2.71063">
        <ele>454.03</ele>
        <time>2021-11-18T11:40:28.408Z</time>
      </trkpt>
      <trkpt lat="44.47001" lon="2.71059">
        <ele>453.09</ele>
        <time>2021-11-18T11:40:39.000Z</time>
      </trkpt>
      <trkpt lat="44.47013" lon="2.71048">
        <ele>453.82</ele>
        <time>2021-11-18T11:40:48.497Z</time>
      </trkpt>
      <trkpt lat="44.47024" lon="2.71042">
        <ele>453.49</ele>
        <time>2021-11-18T11:40:57.714Z</time>
      </trkpt>
      <trkpt lat="44.47033" lon="2.71035">
        <ele>444.64</ele>
        <time>2021-11-18T11:41:06.767Z</time>
      </trkpt>
      <trkpt lat="44.47039" lon="2.71024">
        <ele>448.66</ele>
        <time>2021-11-18T11:41:17.000Z</time>
      </trkpt>
      <trkpt lat="44.47048" lon="2.71012">
        <ele>451.08</ele>
        <time>2021-11-18T11:41:28.000Z</time>
      </trkpt>
      <trkpt lat="44.4705" lon="2.71001">
        <ele>464.29</ele>
        <time>2021-11-18T11:41:37.502Z</time>
      </trkpt>
      <trkpt lat="44.47051" lon="2.70992">
        <ele>441.94</ele>
        <time>2021-11-18T11:41:46.596Z</time>
      </trkpt>
      <trkpt lat="44.47052" lon="2.70987">
        <ele>442.07</ele>
        <time>2021-11-18T11:41:55.716Z</time>
      </trkpt>
      <trkpt lat="44.47054" lon="2.70982">
        <ele>455.71</ele>
        <time>2021-11-18T11:42:05.000Z</time>
      </trkpt>
      <trkpt lat="44.47053" lon="2.70977">
        <ele>449.91</ele>
        <time>2021-11-18T11:42:15.000Z</time>
      </trkpt>
      <trkpt lat="44.47056" lon="2.70963">
        <ele>448.94</ele>
        <time>2021-11-18T11:42:24.416Z</time>
      </trkpt>
      <trkpt lat="44.4706" lon="2.70948">
        <ele>457.63</ele>
        <time>2021-11-18T11:42:35.000Z</time>
      </trkpt>
      <trkpt lat="44.4706" lon="2.70942">
        <ele>452.24</ele>
        <time>2021-11-18T11:42:44.737Z</time>
      </trkpt>
      <trkpt lat="44.47057" lon="2.70953">
        <ele>467.15</ele>
        <time>2021-11-18T11:42:54.005Z</time>
      </trkpt>
      <trkpt lat="44.47055" lon="2.70965">
        <ele>449.1</ele>
        <time>2021-11-18T11:43:03.324Z</time>
      </trkpt>
      <trkpt lat="44.4705" lon="2.70975">
        <ele>461.46</ele>
        <time>2021-11-18T11:43:14.000Z</time>
      </trkpt>
      <trkpt lat="44.47052" lon="2.70975">
        <ele>450.62</ele>
        <time>2021-11-18T11:43:43.000Z</time>
      </trkpt>
      <trkpt lat="44.47054" lon="2.70976">
        <ele>448.93</ele>
        <time>2021-11-18T11:43:53.000Z</time>
      </trkpt>
      <trkpt lat="44.47055" lon="2.70977">
        <ele>444.87</ele>
        <time>2021-11-18T11:44:03.000Z</time>
      </trkpt>
      <trkpt lat="44.47055" lon="2.70979">
        <ele>450.92</ele>
        <time>2021-11-18T11:44:13.000Z</time>
      </trkpt>
      <trkpt lat="44.47056" lon="2.7098">
        <ele>437.32</ele>
        <time>2021-11-18T11:44:23.000Z</time>
      </trkpt>
      <trkpt lat="44.47055" lon="2.70982">
        <ele>444.76</ele>
        <time>2021-11-18T11:44:38.000Z</time>
      </trkpt>
      <trkpt lat="44.47055" lon="2.70983">
        <ele>450.25</ele>
        <time>2021-11-18T11:44:48.000Z</time>
      </trkpt>
      <trkpt lat="44.47054" lon="2.70981">
        <ele>438.49</ele>
        <time>2021-11-18T11:44:59.000Z</time>
      </trkpt>
      <trkpt lat="44.47058" lon="2.70967">
        <ele>449.4</ele>
        <time>2021-11-18T11:45:08.164Z</time>
      </trkpt>
      <trkpt lat="44.4706" lon="2.70956">
        <ele>443.65</ele>
        <time>2021-11-18T11:45:19.000Z</time>
      </trkpt>
      <trkpt lat="44.47063" lon="2.70944">
        <ele>461.28</ele>
        <time>2021-11-18T11:45:28.545Z</time>
      </trkpt>
      <trkpt lat="44.47062" lon="2.70935">
        <ele>454.43</ele>
        <time>2021-11-18T11:45:37.824Z</time>
      </trkpt>
      <trkpt lat="44.4706" lon="2.70924">
        <ele>455.01</ele>
        <time>2021-11-18T11:45:47.000Z</time>
      </trkpt>
      <trkpt lat="44.4706" lon="2.70914">
        <ele>450.93</ele>
        <time>2021-11-18T11:45:56.564Z</time>
      </trkpt>
      <trkpt lat="44.47064" lon="2.709">
        <ele>469.61</ele>
        <time>2021-11-18T11:46:05.565Z</time>
      </trkpt>
      <trkpt lat="44.47061" lon="2.70889">
        <ele>456.4</ele>
        <time>2021-11-18T11:46:16.000Z</time>
      </trkpt>
      <trkpt lat="44.47058" lon="2.70874">
        <ele>468.26</ele>
        <time>2021-11-18T11:46:25.540Z</time>
      </trkpt>
      <trkpt lat="44.47054" lon="2.70858">
        <ele>459.91</ele>
        <time>2021-11-18T11:46:34.875Z</time>
      </trkpt>
      <trkpt lat="44.47048" lon="2.70843">
        <ele>438.38</ele>
        <time>2021-11-18T11:46:44.397Z</time>
      </trkpt>
      <trkpt lat="44.4704" lon="2.70832">
        <ele>454.39</ele>
        <time>2021-11-18T11:46:53.740Z</time>
      </trkpt>
      <trkpt lat="44.47035" lon="2.70821">
        <ele>458.16</ele>
        <time>2021-11-18T11:47:03.694Z</time>
      </trkpt>
      <trkpt lat="44.47027" lon="2.70808">
        <ele>452.35</ele>
        <time>2021-11-18T11:47:13.614Z</time>
      </trkpt>
      <trkpt lat="44.47018" lon="2.70798">
        <ele>457.54</ele>
        <time>2021-11-18T11:47:23.000Z</time>
      </trkpt>
      <trkpt lat="44.4701" lon="2.70785">
        <ele>441.06</ele>
        <time>2021-11-18T11:47:33.000Z</time>
      </trkpt>
      <trkpt lat="44.47001" lon="2.70773">
        <ele>452.44</ele>
        <time>2021-11-18T11:47:42.619Z</time>
      </trkpt>
      <trkpt lat="44.46994" lon="2.70767">
        <ele>451.06</ele>
        <time>2021-11-18T11:47:51.947Z</time>
      </trkpt>
      <trkpt lat="44.46983" lon="2.70763">
        <ele>438.93</ele>
        <time>2021-11-18T11:48:01.130Z</time>
      </trkpt>
      <trkpt lat="44.46972" lon="2.70757">
        <ele>458.83</ele>
        <time>2021-11-18T11:48:11.000Z</time>
      </trkpt>
      <trkpt lat="44.46959" lon="2.70748">
        <ele>446.05</ele>
        <time>2021-11-18T11:48:21.086Z</time>
      </trkpt>
      <trkpt lat="44.46951" lon="2.70742">
        <ele>458.06</ele>
        <time>2021-11-18T11:48:30.542Z</time>
      </trkpt>
      <trkpt lat="44.46946" lon="2.70733">
        <ele>447.83</ele>
        <time>2021-11-18T11:48:40.000Z</time>
      </trkpt>
      <trkpt lat="44.46934" lon="2.70724">
        <ele>450.71</ele>
        <time>2021-11-18T11:48:51.000Z</time>
      </trkpt>
      <trkpt lat="44.46931" lon="2.70722">
        <ele>443.23</ele>
        <time>2021-11-18T11:49:01.000Z</time>
      </trkpt>
      <trkpt lat="44.46931" lon="2.70722">
        <ele>458.66</ele>
        <time>2021-11-18T11:49:53.000Z</time>
      </trkpt>
      <trkpt lat="44.46925" lon="2.7072">
        <ele>444.27</ele>
        <time>2021-11-18T11:50:02.362Z</time>
      </trkpt>
      <trkpt lat="44.46916" lon="2.70714">
        <ele>462.28</ele>
        <time>2021-11-18T11:50:11.485Z</time>
      </trkpt>
      <trkpt lat="44.46906" lon="2.70706">
        <ele>452.72</ele>
        <time>2021-11-18T11:50:20.662Z</time>
      </trkpt>
      <trkpt lat="44.46895" lon="2.70696">
        <ele>453.17</ele>
        <time>2021-11-18T11:50:29.723Z</time>
      </trkpt>
      <trkpt lat="44.46886" lon="2.70687">
        <ele>445.79</ele>
        <time>2021-11-18T11:50:38.765Z</time>
      </trkpt>
      <trkpt lat="44.46876" lon="2.70678">
        <ele>450.53</ele>
        <time>2021-11-18T11:50:47.926Z</time>
      </trkpt>
      <trkpt lat="44.46867" lon="2.70669">
        <ele>452.85</ele>
        <time>2021-11-18T11:50:57.000Z</time>
      </trkpt>
      <trkpt lat="44.46857" lon="2.70655">
        <ele>452.13</ele>
        <time>2021-11-18T11:51:06.663Z</time>
      </trkpt>
      <trkpt lat="44.46849" lon="2.7064">
        <ele>444.78</ele>
        <time>2021-11-18T11:51:15.824Z</time>
      </trkpt>
      <trkpt lat="44.4684" lon="2.70626">
        <ele>445.63</ele>
        <time>2021-11-18T11:51:24.845Z</time>
      </trkpt>
      <trkpt lat="44.46832" lon="2.70611">
        <ele>428.64</ele>
        <time>2021-11-18T11:51:33.863Z</time>
      </trkpt>
      <trkpt lat="44.46827" lon="2.70598">
        <ele>445.55</ele>
        <time>2021-11-18T11:51:43.424Z</time>
      </trkpt>
      <trkpt lat="44.4682" lon="2.70587">
        <ele>453.43</ele>
        <time>2021-11-18T11:51:52.625Z</time>
      </trkpt>
      <trkpt lat="44.46811" lon="2.70578">
        <ele>437.73</ele>
        <time>2021-11-18T11:52:01.925Z</time>
      </trkpt>
      <trkpt lat="44.46804" lon="2.70573">
        <ele>448.72</ele>
        <time>2021-11-18T11:52:11.000Z</time>
      </trkpt>
      <trkpt lat="44.46797" lon="2.70569">
        <ele>443.59</ele>
        <time>2021-11-18T11:52:20.442Z</time>
      </trkpt>
      <trkpt lat="44.46785" lon="2.70567">
        <ele>434.59</ele>
        <time>2021-11-18T11:52:31.000Z</time>
      </trkpt>
      <trkpt lat="44.46773" lon="2.70567">
        <ele>444.93</ele>
        <time>2021-11-18T11:52:40.763Z</time>
      </trkpt>
      <trkpt lat="44.46762" lon="2.7057">
        <ele>436.42</ele>
        <time>2021-11-18T11:52:49.824Z</time>
      </trkpt>
      <trkpt lat="44.46753" lon="2.70568">
        <ele>431.22</ele>
        <time>2021-11-18T11:53:00.000Z</time>
      </trkpt>
      <trkpt lat="44.4674" lon="2.70565">
        <ele>451.39</ele>
        <time>2021-11-18T11:53:10.000Z</time>
      </trkpt>
      <trkpt lat="44.46732" lon="2.70565">
        <ele>435.02</ele>
        <time>2021-11-18T11:53:20.000Z</time>
      </trkpt>
      <trkpt lat="44.46726" lon="2.70564">
        <ele>434.84</ele>
        <time>2021-11-18T11:53:30.000Z</time>
      </trkpt>
      <trkpt lat="44.46722" lon="2.70562">
        <ele>429.84</ele>
        <time>2021-11-18T11:53:40.000Z</time>
      </trkpt>
      <trkpt lat="44.4672" lon="2.70561">
        <ele>442.82</ele>
        <time>2021-11-18T11:53:50.000Z</time>
      </trkpt>
      <trkpt lat="44.46717" lon="2.70562">
        <ele>445.84</ele>
        <time>2021-11-18T11:54:00.000Z</time>
      </trkpt>
      <trkpt lat="44.46716" lon="2.70562">
        <ele>433.26</ele>
        <time>2021-11-18T11:54:43.000Z</time>
      </trkpt>
      <trkpt lat="44.46706" lon="2.70561">
        <ele>433.74</ele>
        <time>2021-11-18T11:54:52.484Z</time>
      </trkpt>
      <trkpt lat="44.467" lon="2.70561">
        <ele>428.31</ele>
        <time>2021-11-18T11:55:02.000Z</time>
      </trkpt>
      <trkpt lat="44.46686" lon="2.70559">
        <ele>438.76</ele>
        <time>2021-11-18T11:55:11.504Z</time>
      </trkpt>
      <trkpt lat="44.46678" lon="2.70556">
        <ele>435.86</ele>
        <time>2021-11-18T11:55:21.000Z</time>
      </trkpt>
      <trkpt lat="44.46667" lon="2.70554">
        <ele>432.18</ele>
        <time>2021-11-18T11:55:30.265Z</time>
      </trkpt>
      <trkpt lat="44.46659" lon="2.70549">
        <ele>456.13</ele>
        <time>2021-11-18T11:55:39.303Z</time>
      </trkpt>
      <trkpt lat="44.46653" lon="2.70545">
        <ele>435.41</ele>
        <time>2021-11-18T11:55:48.745Z</time>
      </trkpt>
      <trkpt lat="44.4664" lon="2.70535">
        <ele>437.11</ele>
        <time>2021-11-18T11:55:57.903Z</time>
      </trkpt>
      <trkpt lat="44.46629" lon="2.70531">
        <ele>441.64</ele>
        <time>2021-11-18T11:56:07.464Z</time>
      </trkpt>
      <trkpt lat="44.46623" lon="2.70521">
        <ele>440.07</ele>
        <time>2021-11-18T11:56:16.864Z</time>
      </trkpt>
      <trkpt lat="44.46616" lon="2.70509">
        <ele>434.71</ele>
        <time>2021-11-18T11:56:26.226Z</time>
      </trkpt>
      <trkpt lat="44.46608" lon="2.70497">
        <ele>430.17</ele>
        <time>2021-11-18T11:56:36.000Z</time>
      </trkpt>
      <trkpt lat="44.46603" lon="2.70487">
        <ele>450.04</ele>
        <time>2021-11-18T11:56:46.000Z</time>
      </trkpt>
      <trkpt lat="44.46601" lon="2.70471">
        <ele>449.53</ele>
        <time>2021-11-18T11:56:57.000Z</time>
      </trkpt>
      <trkpt lat="44.46598" lon="2.70457">
        <ele>447.04</ele>
        <time>2021-11-18T11:57:07.136Z</time>
      </trkpt>
      <trkpt lat="44.46601" lon="2.70439">
        <ele>441.82</ele>
        <time>2021-11-18T11:57:16.296Z</time>
      </trkpt>
      <trkpt lat="44.46608" lon="2.70424">
        <ele>440.24</ele>
        <time>2021-11-18T11:57:25.898Z</time>
      </trkpt>
      <trkpt lat="44.46603" lon="2.7041">
        <ele>439.63</ele>
        <time>2021-11-18T11:57:35.836Z</time>
      </trkpt>
      <trkpt lat="44.466" lon="2.70397">
        <ele>431.35</ele>
        <time>2021-11-18T11:57:44.903Z</time>
      </trkpt>
      <trkpt lat="44.46608" lon="2.70383">
        <ele>443.71</ele>
        <time>2021-11-18T11:57:54.242Z</time>
      </trkpt>
      <trkpt lat="44.46612" lon="2.70368">
        <ele>439.51</ele>
        <time>2021-11-18T11:58:03.742Z</time>
      </trkpt>
      <trkpt lat="44.46616" lon="2.70356">
        <ele>449.8</ele>
        <time>2021-11-18T11:58:12.842Z</time>
      </trkpt>
      <trkpt lat="44.46621" lon="2.70348">
        <ele>454.97</ele>
        <time>2021-11-18T11:58:23.000Z</time>
      </trkpt>
      <trkpt lat="44.46622" lon="2.70337">
        <ele>435.77</ele>
        <time>2021-11-18T11:58:33.000Z</time>
      </trkpt>
      <trkpt lat="44.46628" lon="2.70331">
        <ele>425.4</ele>
        <time>2021-11-18T11:58:42.921Z</time>
      </trkpt>
      <trkpt lat="44.46633" lon="2.70327">
        <ele>428.91</ele>
        <time>2021-11-18T11:58:52.000Z</time>
      </trkpt>
      <trkpt lat="44.46638" lon="2.70329">
        <ele>431.5</ele>
        <time>2021-11-18T11:59:02.000Z</time>
      </trkpt>
      <trkpt lat="44.46643" lon="2.70335">
        <ele>419.77</ele>
        <time>2021-11-18T11:59:11.743Z</time>
      </trkpt>
      <trkpt lat="44.46647" lon="2.70328">
        <ele>414.56</ele>
        <time>2021-11-18T11:59:20.821Z</time>
      </trkpt>
      <trkpt lat="44.46646" lon="2.7031">
        <ele>432.81</ele>
        <time>2021-11-18T11:59:30.000Z</time>
      </trkpt>
      <trkpt lat="44.46647" lon="2.70293">
        <ele>445.64</ele>
        <time>2021-11-18T11:59:39.423Z</time>
      </trkpt>
      <trkpt lat="44.46652" lon="2.70278">
        <ele>428.51</ele>
        <time>2021-11-18T11:59:48.800Z</time>
      </trkpt>
      <trkpt lat="44.46655" lon="2.70263">
        <ele>444.67</ele>
        <time>2021-11-18T11:59:58.802Z</time>
      </trkpt>
      <trkpt lat="44.46661" lon="2.7025">
        <ele>432.59</ele>
        <time>2021-11-18T12:00:08.760Z</time>
      </trkpt>
      <trkpt lat="44.46665" lon="2.70235">
        <ele>438.9</ele>
        <time>2021-11-18T12:00:18.123Z</time>
      </trkpt>
      <trkpt lat="44.46673" lon="2.70219">
        <ele>446.99</ele>
        <time>2021-11-18T12:00:27.221Z</time>
      </trkpt>
      <trkpt lat="44.46677" lon="2.70207">
        <ele>432.14</ele>
        <time>2021-11-18T12:00:37.000Z</time>
      </trkpt>
      <trkpt lat="44.46681" lon="2.70193">
        <ele>446.3</ele>
        <time>2021-11-18T12:00:46.402Z</time>
      </trkpt>
      <trkpt lat="44.46687" lon="2.7018">
        <ele>427.69</ele>
        <time>2021-11-18T12:00:55.681Z</time>
      </trkpt>
      <trkpt lat="44.46691" lon="2.70167">
        <ele>436.6</ele>
        <time>2021-11-18T12:01:04.920Z</time>
      </trkpt>
      <trkpt lat="44.46694" lon="2.7015">
        <ele>426.86</ele>
        <time>2021-11-18T12:01:14.120Z</time>
      </trkpt>
      <trkpt lat="44.46698" lon="2.70132">
        <ele>430.51</ele>
        <time>2021-11-18T12:01:23.422Z</time>
      </trkpt>
      <trkpt lat="44.46703" lon="2.70116">
        <ele>449.06</ele>
        <time>2021-11-18T12:01:32.823Z</time>
      </trkpt>
      <trkpt lat="44.4671" lon="2.70102">
        <ele>434.1</ele>
        <time>2021-11-18T12:01:44.000Z</time>
      </trkpt>
      <trkpt lat="44.46717" lon="2.70087">
        <ele>435.43</ele>
        <time>2021-11-18T12:01:53.603Z</time>
      </trkpt>
      <trkpt lat="44.46726" lon="2.7008">
        <ele>435.49</ele>
        <time>2021-11-18T12:02:04.000Z</time>
      </trkpt>
      <trkpt lat="44.46736" lon="2.70071">
        <ele>434</ele>
        <time>2021-11-18T12:02:13.051Z</time>
      </trkpt>
      <trkpt lat="44.46744" lon="2.70063">
        <ele>428.98</ele>
        <time>2021-11-18T12:02:22.363Z</time>
      </trkpt>
      <trkpt lat="44.46753" lon="2.70057">
        <ele>446.27</ele>
        <time>2021-11-18T12:02:31.661Z</time>
      </trkpt>
      <trkpt lat="44.46762" lon="2.70047">
        <ele>432.88</ele>
        <time>2021-11-18T12:02:41.701Z</time>
      </trkpt>
      <trkpt lat="44.46771" lon="2.70035">
        <ele>434.26</ele>
        <time>2021-11-18T12:02:52.000Z</time>
      </trkpt>
      <trkpt lat="44.46782" lon="2.70027">
        <ele>427.5</ele>
        <time>2021-11-18T12:03:01.761Z</time>
      </trkpt>
      <trkpt lat="44.4679" lon="2.70019">
        <ele>422.19</ele>
        <time>2021-11-18T12:03:12.000Z</time>
      </trkpt>
      <trkpt lat="44.46802" lon="2.7001">
        <ele>437</ele>
        <time>2021-11-18T12:03:23.000Z</time>
      </trkpt>
      <trkpt lat="44.46806" lon="2.70003">
        <ele>431.86</ele>
        <time>2021-11-18T12:03:33.000Z</time>
      </trkpt>
      <trkpt lat="44.46808" lon="2.69994">
        <ele>435.25</ele>
        <time>2021-11-18T12:03:42.443Z</time>
      </trkpt>
      <trkpt lat="44.46804" lon="2.69984">
        <ele>447.78</ele>
        <time>2021-11-18T12:03:51.901Z</time>
      </trkpt>
      <trkpt lat="44.46802" lon="2.69971">
        <ele>424.84</ele>
        <time>2021-11-18T12:04:01.000Z</time>
      </trkpt>
      <trkpt lat="44.46799" lon="2.69954">
        <ele>442.04</ele>
        <time>2021-11-18T12:04:10.612Z</time>
      </trkpt>
      <trkpt lat="44.46803" lon="2.69939">
        <ele>428.66</ele>
        <time>2021-11-18T12:04:19.783Z</time>
      </trkpt>
      <trkpt lat="44.46807" lon="2.69927">
        <ele>433.69</ele>
        <time>2021-11-18T12:04:29.000Z</time>
      </trkpt>
      <trkpt lat="44.46808" lon="2.6991">
        <ele>443.59</ele>
        <time>2021-11-18T12:04:38.080Z</time>
      </trkpt>
      <trkpt lat="44.46803" lon="2.69896">
        <ele>416.56</ele>
        <time>2021-11-18T12:04:47.883Z</time>
      </trkpt>
      <trkpt lat="44.46791" lon="2.69899">
        <ele>428.43</ele>
        <time>2021-11-18T12:04:57.602Z</time>
      </trkpt>
      <trkpt lat="44.46782" lon="2.69906">
        <ele>427.2</ele>
        <time>2021-11-18T12:05:07.181Z</time>
      </trkpt>
      <trkpt lat="44.46774" lon="2.6991">
        <ele>440.53</ele>
        <time>2021-11-18T12:05:16.302Z</time>
      </trkpt>
      <trkpt lat="44.46765" lon="2.69917">
        <ele>424.09</ele>
        <time>2021-11-18T12:05:25.503Z</time>
      </trkpt>
      <trkpt lat="44.46758" lon="2.69924">
        <ele>430.5</ele>
        <time>2021-11-18T12:05:35.000Z</time>
      </trkpt>
      <trkpt lat="44.46751" lon="2.69935">
        <ele>437.41</ele>
        <time>2021-11-18T12:05:44.521Z</time>
      </trkpt>
      <trkpt lat="44.46745" lon="2.69946">
        <ele>429.53</ele>
        <time>2021-11-18T12:05:55.000Z</time>
      </trkpt>
      <trkpt lat="44.46738" lon="2.69957">
        <ele>438.88</ele>
        <time>2021-11-18T12:06:04.942Z</time>
      </trkpt>
      <trkpt lat="44.46732" lon="2.69966">
        <ele>438.9</ele>
        <time>2021-11-18T12:06:14.000Z</time>
      </trkpt>
      <trkpt lat="44.46725" lon="2.69977">
        <ele>454.94</ele>
        <time>2021-11-18T12:06:23.441Z</time>
      </trkpt>
      <trkpt lat="44.46719" lon="2.69985">
        <ele>440.94</ele>
        <time>2021-11-18T12:06:32.443Z</time>
      </trkpt>
      <trkpt lat="44.46713" lon="2.69997">
        <ele>456.52</ele>
        <time>2021-11-18T12:06:43.000Z</time>
      </trkpt>
      <trkpt lat="44.46706" lon="2.70008">
        <ele>449</ele>
        <time>2021-11-18T12:06:54.000Z</time>
      </trkpt>
      <trkpt lat="44.46701" lon="2.7002">
        <ele>450.14</ele>
        <time>2021-11-18T12:07:03.882Z</time>
      </trkpt>
      <trkpt lat="44.46694" lon="2.70031">
        <ele>438.01</ele>
        <time>2021-11-18T12:07:15.000Z</time>
      </trkpt>
      <trkpt lat="44.46687" lon="2.70043">
        <ele>441.44</ele>
        <time>2021-11-18T12:07:24.442Z</time>
      </trkpt>
      <trkpt lat="44.46677" lon="2.70051">
        <ele>448.62</ele>
        <time>2021-11-18T12:07:34.681Z</time>
      </trkpt>
      <trkpt lat="44.46671" lon="2.70057">
        <ele>451.86</ele>
        <time>2021-11-18T12:07:43.843Z</time>
      </trkpt>
      <trkpt lat="44.46663" lon="2.70066">
        <ele>432.23</ele>
        <time>2021-11-18T12:07:52.922Z</time>
      </trkpt>
      <trkpt lat="44.46656" lon="2.70074">
        <ele>460.84</ele>
        <time>2021-11-18T12:08:01.960Z</time>
      </trkpt>
      <trkpt lat="44.46647" lon="2.70082">
        <ele>443.45</ele>
        <time>2021-11-18T12:08:12.000Z</time>
      </trkpt>
      <trkpt lat="44.4664" lon="2.70091">
        <ele>445.9</ele>
        <time>2021-11-18T12:08:22.000Z</time>
      </trkpt>
      <trkpt lat="44.46632" lon="2.70101">
        <ele>444.08</ele>
        <time>2021-11-18T12:08:31.843Z</time>
      </trkpt>
      <trkpt lat="44.46627" lon="2.70109">
        <ele>454.17</ele>
        <time>2021-11-18T12:08:41.000Z</time>
      </trkpt>
      <trkpt lat="44.46618" lon="2.70116">
        <ele>459.56</ele>
        <time>2021-11-18T12:08:50.484Z</time>
      </trkpt>
      <trkpt lat="44.4661" lon="2.70126">
        <ele>448.55</ele>
        <time>2021-11-18T12:09:00.303Z</time>
      </trkpt>
      <trkpt lat="44.46603" lon="2.70132">
        <ele>443.51</ele>
        <time>2021-11-18T12:09:09.581Z</time>
      </trkpt>
      <trkpt lat="44.46595" lon="2.70141">
        <ele>449.19</ele>
        <time>2021-11-18T12:09:20.000Z</time>
      </trkpt>
      <trkpt lat="44.46589" lon="2.70151">
        <ele>452.95</ele>
        <time>2021-11-18T12:09:29.202Z</time>
      </trkpt>
      <trkpt lat="44.46583" lon="2.7016">
        <ele>455.16</ele>
        <time>2021-11-18T12:09:38.581Z</time>
      </trkpt>
      <trkpt lat="44.46577" lon="2.70169">
        <ele>462.95</ele>
        <time>2021-11-18T12:09:47.843Z</time>
      </trkpt>
      <trkpt lat="44.46572" lon="2.70176">
        <ele>459.18</ele>
        <time>2021-11-18T12:09:57.000Z</time>
      </trkpt>
      <trkpt lat="44.46569" lon="2.70185">
        <ele>471.83</ele>
        <time>2021-11-18T12:10:06.141Z</time>
      </trkpt>
      <trkpt lat="44.46563" lon="2.70195">
        <ele>457.99</ele>
        <time>2021-11-18T12:10:15.721Z</time>
      </trkpt>
      <trkpt lat="44.46558" lon="2.70204">
        <ele>469.85</ele>
        <time>2021-11-18T12:10:26.000Z</time>
      </trkpt>
      <trkpt lat="44.46554" lon="2.70217">
        <ele>469.81</ele>
        <time>2021-11-18T12:10:35.523Z</time>
      </trkpt>
      <trkpt lat="44.46549" lon="2.70227">
        <ele>466.82</ele>
        <time>2021-11-18T12:10:45.263Z</time>
      </trkpt>
      <trkpt lat="44.46545" lon="2.70236">
        <ele>479.16</ele>
        <time>2021-11-18T12:10:54.643Z</time>
      </trkpt>
      <trkpt lat="44.46541" lon="2.70245">
        <ele>470.45</ele>
        <time>2021-11-18T12:11:03.663Z</time>
      </trkpt>
      <trkpt lat="44.46539" lon="2.70257">
        <ele>483.35</ele>
        <time>2021-11-18T12:11:13.222Z</time>
      </trkpt>
      <trkpt lat="44.46536" lon="2.70268">
        <ele>465.8</ele>
        <time>2021-11-18T12:11:23.000Z</time>
      </trkpt>
      <trkpt lat="44.46533" lon="2.7028">
        <ele>481.82</ele>
        <time>2021-11-18T12:11:32.521Z</time>
      </trkpt>
      <trkpt lat="44.46532" lon="2.7029">
        <ele>481.12</ele>
        <time>2021-11-18T12:11:42.000Z</time>
      </trkpt>
      <trkpt lat="44.46532" lon="2.70295">
        <ele>475.74</ele>
        <time>2021-11-18T12:11:52.000Z</time>
      </trkpt>
      <trkpt lat="44.46528" lon="2.70307">
        <ele>473.55</ele>
        <time>2021-11-18T12:12:03.000Z</time>
      </trkpt>
      <trkpt lat="44.46523" lon="2.70317">
        <ele>476.48</ele>
        <time>2021-11-18T12:12:13.000Z</time>
      </trkpt>
      <trkpt lat="44.46518" lon="2.70329">
        <ele>488.61</ele>
        <time>2021-11-18T12:12:23.000Z</time>
      </trkpt>
      <trkpt lat="44.46514" lon="2.70341">
        <ele>472.87</ele>
        <time>2021-11-18T12:12:33.000Z</time>
      </trkpt>
      <trkpt lat="44.46516" lon="2.70353">
        <ele>494.66</ele>
        <time>2021-11-18T12:12:43.000Z</time>
      </trkpt>
      <trkpt lat="44.46515" lon="2.70369">
        <ele>487.87</ele>
        <time>2021-11-18T12:12:53.000Z</time>
      </trkpt>
      <trkpt lat="44.46514" lon="2.7038">
        <ele>501.73</ele>
        <time>2021-11-18T12:13:02.421Z</time>
      </trkpt>
      <trkpt lat="44.46514" lon="2.70389">
        <ele>490.97</ele>
        <time>2021-11-18T12:13:11.884Z</time>
      </trkpt>
      <trkpt lat="44.46514" lon="2.7039">
        <ele>493.55</ele>
        <time>2021-11-18T12:13:21.000Z</time>
      </trkpt>
      <trkpt lat="44.46514" lon="2.70391">
        <ele>487.77</ele>
        <time>2021-11-18T12:14:10.000Z</time>
      </trkpt>
      <trkpt lat="44.46515" lon="2.70406">
        <ele>508.09</ele>
        <time>2021-11-18T12:14:20.000Z</time>
      </trkpt>
      <trkpt lat="44.46516" lon="2.70416">
        <ele>488.24</ele>
        <time>2021-11-18T12:14:30.000Z</time>
      </trkpt>
      <trkpt lat="44.46517" lon="2.70417">
        <ele>498.64</ele>
        <time>2021-11-18T12:14:40.000Z</time>
      </trkpt>
      <trkpt lat="44.46516" lon="2.70419">
        <ele>489.74</ele>
        <time>2021-11-18T12:14:58.260Z</time>
      </trkpt>
      <trkpt lat="44.46512" lon="2.70429">
        <ele>483.66</ele>
        <time>2021-11-18T12:15:07.523Z</time>
      </trkpt>
      <trkpt lat="44.46505" lon="2.70438">
        <ele>493.08</ele>
        <time>2021-11-18T12:15:18.000Z</time>
      </trkpt>
      <trkpt lat="44.465" lon="2.70449">
        <ele>505.64</ele>
        <time>2021-11-18T12:15:27.762Z</time>
      </trkpt>
      <trkpt lat="44.46493" lon="2.70457">
        <ele>495.01</ele>
        <time>2021-11-18T12:15:38.000Z</time>
      </trkpt>
      <trkpt lat="44.46491" lon="2.70461">
        <ele>492.26</ele>
        <time>2021-11-18T12:15:48.000Z</time>
      </trkpt>
      <trkpt lat="44.4649" lon="2.70461">
        <ele>506.19</ele>
        <time>2021-11-18T12:15:58.000Z</time>
      </trkpt>
      <trkpt lat="44.46489" lon="2.70463">
        <ele>491.83</ele>
        <time>2021-11-18T12:17:11.302Z</time>
      </trkpt>
      <trkpt lat="44.46484" lon="2.70474">
        <ele>504.46</ele>
        <time>2021-11-18T12:17:21.000Z</time>
      </trkpt>
      <trkpt lat="44.46474" lon="2.70484">
        <ele>499.16</ele>
        <time>2021-11-18T12:17:31.000Z</time>
      </trkpt>
      <trkpt lat="44.46466" lon="2.70496">
        <ele>498.63</ele>
        <time>2021-11-18T12:17:40.580Z</time>
      </trkpt>
      <trkpt lat="44.4646" lon="2.7051">
        <ele>499.27</ele>
        <time>2021-11-18T12:17:49.782Z</time>
      </trkpt>
      <trkpt lat="44.46452" lon="2.70524">
        <ele>511.35</ele>
        <time>2021-11-18T12:18:00.000Z</time>
      </trkpt>
      <trkpt lat="44.46446" lon="2.70539">
        <ele>505.41</ele>
        <time>2021-11-18T12:18:09.682Z</time>
      </trkpt>
      <trkpt lat="44.46441" lon="2.70553">
        <ele>496.37</ele>
        <time>2021-11-18T12:18:18.683Z</time>
      </trkpt>
      <trkpt lat="44.46435" lon="2.70566">
        <ele>499.34</ele>
        <time>2021-11-18T12:18:27.862Z</time>
      </trkpt>
      <trkpt lat="44.46431" lon="2.70582">
        <ele>503.69</ele>
        <time>2021-11-18T12:18:37.940Z</time>
      </trkpt>
      <trkpt lat="44.4643" lon="2.70595">
        <ele>507.83</ele>
        <time>2021-11-18T12:18:47.279Z</time>
      </trkpt>
      <trkpt lat="44.46428" lon="2.70611">
        <ele>501.61</ele>
        <time>2021-11-18T12:18:58.000Z</time>
      </trkpt>
      <trkpt lat="44.46432" lon="2.70617">
        <ele>514.26</ele>
        <time>2021-11-18T12:19:08.000Z</time>
      </trkpt>
      <trkpt lat="44.46434" lon="2.70625">
        <ele>491.02</ele>
        <time>2021-11-18T12:19:17.551Z</time>
      </trkpt>
      <trkpt lat="44.4644" lon="2.70636">
        <ele>517.14</ele>
        <time>2021-11-18T12:19:28.000Z</time>
      </trkpt>
      <trkpt lat="44.46446" lon="2.70645">
        <ele>500.71</ele>
        <time>2021-11-18T12:19:37.193Z</time>
      </trkpt>
      <trkpt lat="44.46452" lon="2.70653">
        <ele>500.15</ele>
        <time>2021-11-18T12:19:46.252Z</time>
      </trkpt>
      <trkpt lat="44.46459" lon="2.70658">
        <ele>507.15</ele>
        <time>2021-11-18T12:19:56.000Z</time>
      </trkpt>
      <trkpt lat="44.46466" lon="2.70662">
        <ele>514.95</ele>
        <time>2021-11-18T12:20:06.000Z</time>
      </trkpt>
      <trkpt lat="44.4647" lon="2.70667">
        <ele>502.26</ele>
        <time>2021-11-18T12:20:15.772Z</time>
      </trkpt>
      <trkpt lat="44.46479" lon="2.70674">
        <ele>491.67</ele>
        <time>2021-11-18T12:20:25.752Z</time>
      </trkpt>
      <trkpt lat="44.46486" lon="2.70684">
        <ele>524.06</ele>
        <time>2021-11-18T12:20:34.932Z</time>
      </trkpt>
      <trkpt lat="44.46495" lon="2.7069">
        <ele>520.24</ele>
        <time>2021-11-18T12:20:44.453Z</time>
      </trkpt>
      <trkpt lat="44.46495" lon="2.70691">
        <ele>512.55</ele>
        <time>2021-11-18T12:20:54.000Z</time>
      </trkpt>
      <trkpt lat="44.46496" lon="2.70692">
        <ele>518.36</ele>
        <time>2021-11-18T12:21:17.000Z</time>
      </trkpt>
      <trkpt lat="44.46504" lon="2.70704">
        <ele>517.06</ele>
        <time>2021-11-18T12:21:26.351Z</time>
      </trkpt>
      <trkpt lat="44.46509" lon="2.70715">
        <ele>524.7</ele>
        <time>2021-11-18T12:21:35.932Z</time>
      </trkpt>
      <trkpt lat="44.46514" lon="2.70725">
        <ele>514.11</ele>
        <time>2021-11-18T12:21:46.000Z</time>
      </trkpt>
      <trkpt lat="44.46517" lon="2.70738">
        <ele>510.51</ele>
        <time>2021-11-18T12:21:56.000Z</time>
      </trkpt>
      <trkpt lat="44.46524" lon="2.70741">
        <ele>521.32</ele>
        <time>2021-11-18T12:22:05.592Z</time>
      </trkpt>
      <trkpt lat="44.46532" lon="2.70744">
        <ele>524.53</ele>
        <time>2021-11-18T12:22:15.894Z</time>
      </trkpt>
      <trkpt lat="44.4654" lon="2.70745">
        <ele>513.91</ele>
        <time>2021-11-18T12:22:24.972Z</time>
      </trkpt>
      <trkpt lat="44.46547" lon="2.70749">
        <ele>524.63</ele>
        <time>2021-11-18T12:22:34.494Z</time>
      </trkpt>
      <trkpt lat="44.46553" lon="2.70753">
        <ele>547.46</ele>
        <time>2021-11-18T12:22:43.613Z</time>
      </trkpt>
      <trkpt lat="44.4656" lon="2.7076">
        <ele>534.98</ele>
        <time>2021-11-18T12:22:54.000Z</time>
      </trkpt>
      <trkpt lat="44.46565" lon="2.70767">
        <ele>538.8</ele>
        <time>2021-11-18T12:23:03.232Z</time>
      </trkpt>
      <trkpt lat="44.4657" lon="2.70776">
        <ele>524.79</ele>
        <time>2021-11-18T12:23:12.852Z</time>
      </trkpt>
      <trkpt lat="44.46573" lon="2.70784">
        <ele>526.84</ele>
        <time>2021-11-18T12:23:22.000Z</time>
      </trkpt>
      <trkpt lat="44.46575" lon="2.70792">
        <ele>535.31</ele>
        <time>2021-11-18T12:23:32.000Z</time>
      </trkpt>
      <trkpt lat="44.46581" lon="2.70802">
        <ele>534.44</ele>
        <time>2021-11-18T12:23:41.651Z</time>
      </trkpt>
      <trkpt lat="44.46585" lon="2.70811">
        <ele>543.41</ele>
        <time>2021-11-18T12:23:51.000Z</time>
      </trkpt>
      <trkpt lat="44.46586" lon="2.70824">
        <ele>545.65</ele>
        <time>2021-11-18T12:24:00.692Z</time>
      </trkpt>
      <trkpt lat="44.46591" lon="2.70835">
        <ele>540.86</ele>
        <time>2021-11-18T12:24:09.752Z</time>
      </trkpt>
      <trkpt lat="44.46595" lon="2.7085">
        <ele>544.05</ele>
        <time>2021-11-18T12:24:19.774Z</time>
      </trkpt>
      <trkpt lat="44.46599" lon="2.70863">
        <ele>533.97</ele>
        <time>2021-11-18T12:24:29.374Z</time>
      </trkpt>
      <trkpt lat="44.46603" lon="2.70875">
        <ele>540.69</ele>
        <time>2021-11-18T12:24:40.000Z</time>
      </trkpt>
      <trkpt lat="44.46607" lon="2.70889">
        <ele>541.01</ele>
        <time>2021-11-18T12:24:49.374Z</time>
      </trkpt>
      <trkpt lat="44.4661" lon="2.70901">
        <ele>519.04</ele>
        <time>2021-11-18T12:24:59.000Z</time>
      </trkpt>
      <trkpt lat="44.46614" lon="2.70918">
        <ele>541.67</ele>
        <time>2021-11-18T12:25:08.753Z</time>
      </trkpt>
      <trkpt lat="44.46616" lon="2.70934">
        <ele>550.52</ele>
        <time>2021-11-18T12:25:18.174Z</time>
      </trkpt>
      <trkpt lat="44.46618" lon="2.70949">
        <ele>537.4</ele>
        <time>2021-11-18T12:25:27.754Z</time>
      </trkpt>
      <trkpt lat="44.46622" lon="2.70964">
        <ele>526.86</ele>
        <time>2021-11-18T12:25:37.332Z</time>
      </trkpt>
      <trkpt lat="44.46625" lon="2.70979">
        <ele>546.38</ele>
        <time>2021-11-18T12:25:48.000Z</time>
      </trkpt>
      <trkpt lat="44.4663" lon="2.70993">
        <ele>529.06</ele>
        <time>2021-11-18T12:25:57.352Z</time>
      </trkpt>
      <trkpt lat="44.46633" lon="2.71006">
        <ele>545.23</ele>
        <time>2021-11-18T12:26:06.534Z</time>
      </trkpt>
      <trkpt lat="44.46637" lon="2.71022">
        <ele>540.12</ele>
        <time>2021-11-18T12:26:16.010Z</time>
      </trkpt>
      <trkpt lat="44.4664" lon="2.71036">
        <ele>547.65</ele>
        <time>2021-11-18T12:26:26.000Z</time>
      </trkpt>
      <trkpt lat="44.46643" lon="2.7105">
        <ele>546.24</ele>
        <time>2021-11-18T12:26:35.713Z</time>
      </trkpt>
      <trkpt lat="44.46644" lon="2.71066">
        <ele>544.62</ele>
        <time>2021-11-18T12:26:45.653Z</time>
      </trkpt>
      <trkpt lat="44.46644" lon="2.71082">
        <ele>543.52</ele>
        <time>2021-11-18T12:26:56.000Z</time>
      </trkpt>
      <trkpt lat="44.46643" lon="2.71099">
        <ele>537.5</ele>
        <time>2021-11-18T12:27:05.872Z</time>
      </trkpt>
      <trkpt lat="44.46642" lon="2.71112">
        <ele>555.63</ele>
        <time>2021-11-18T12:27:15.472Z</time>
      </trkpt>
      <trkpt lat="44.4664" lon="2.71128">
        <ele>540.11</ele>
        <time>2021-11-18T12:27:25.672Z</time>
      </trkpt>
      <trkpt lat="44.4664" lon="2.71139">
        <ele>558.28</ele>
        <time>2021-11-18T12:27:34.913Z</time>
      </trkpt>
      <trkpt lat="44.46639" lon="2.71152">
        <ele>553.14</ele>
        <time>2021-11-18T12:27:44.292Z</time>
      </trkpt>
      <trkpt lat="44.46642" lon="2.71165">
        <ele>531.62</ele>
        <time>2021-11-18T12:27:53.851Z</time>
      </trkpt>
      <trkpt lat="44.46646" lon="2.71177">
        <ele>546.19</ele>
        <time>2021-11-18T12:28:04.000Z</time>
      </trkpt>
      <trkpt lat="44.46653" lon="2.71189">
        <ele>538</ele>
        <time>2021-11-18T12:28:13.193Z</time>
      </trkpt>
      <trkpt lat="44.46659" lon="2.71202">
        <ele>533.69</ele>
        <time>2021-11-18T12:28:22.514Z</time>
      </trkpt>
      <trkpt lat="44.46665" lon="2.71214">
        <ele>529.18</ele>
        <time>2021-11-18T12:28:31.812Z</time>
      </trkpt>
      <trkpt lat="44.46671" lon="2.71226">
        <ele>530.41</ele>
        <time>2021-11-18T12:28:41.312Z</time>
      </trkpt>
      <trkpt lat="44.46674" lon="2.71233">
        <ele>522.32</ele>
        <time>2021-11-18T12:28:50.492Z</time>
      </trkpt>
      <trkpt lat="44.46677" lon="2.71241">
        <ele>544.34</ele>
        <time>2021-11-18T12:28:59.673Z</time>
      </trkpt>
      <trkpt lat="44.46682" lon="2.71249">
        <ele>523.59</ele>
        <time>2021-11-18T12:29:08.871Z</time>
      </trkpt>
      <trkpt lat="44.46686" lon="2.71257">
        <ele>538.66</ele>
        <time>2021-11-18T12:29:18.233Z</time>
      </trkpt>
      <trkpt lat="44.46692" lon="2.71265">
        <ele>536.55</ele>
        <time>2021-11-18T12:29:27.813Z</time>
      </trkpt>
      <trkpt lat="44.46698" lon="2.71271">
        <ele>540.06</ele>
        <time>2021-11-18T12:29:36.892Z</time>
      </trkpt>
      <trkpt lat="44.46702" lon="2.71274">
        <ele>538.87</ele>
        <time>2021-11-18T12:29:46.000Z</time>
      </trkpt>
      <trkpt lat="44.46703" lon="2.71273">
        <ele>540.13</ele>
        <time>2021-11-18T12:30:06.000Z</time>
      </trkpt>
      <trkpt lat="44.46706" lon="2.71279">
        <ele>538.66</ele>
        <time>2021-11-18T12:30:15.511Z</time>
      </trkpt>
      <trkpt lat="44.46711" lon="2.71286">
        <ele>550.22</ele>
        <time>2021-11-18T12:30:24.793Z</time>
      </trkpt>
      <trkpt lat="44.46715" lon="2.71294">
        <ele>527.56</ele>
        <time>2021-11-18T12:30:34.000Z</time>
      </trkpt>
      <trkpt lat="44.46723" lon="2.71305">
        <ele>539.2</ele>
        <time>2021-11-18T12:30:43.492Z</time>
      </trkpt>
      <trkpt lat="44.46732" lon="2.71315">
        <ele>551.5</ele>
        <time>2021-11-18T12:30:52.932Z</time>
      </trkpt>
      <trkpt lat="44.46738" lon="2.71329">
        <ele>544.98</ele>
        <time>2021-11-18T12:31:02.435Z</time>
      </trkpt>
      <trkpt lat="44.46741" lon="2.71337">
        <ele>544.72</ele>
        <time>2021-11-18T12:31:12.000Z</time>
      </trkpt>
      <trkpt lat="44.46743" lon="2.71338">
        <ele>528.3</ele>
        <time>2021-11-18T12:31:22.294Z</time>
      </trkpt>
      <trkpt lat="44.46749" lon="2.71352">
        <ele>530.06</ele>
        <time>2021-11-18T12:31:31.593Z</time>
      </trkpt>
      <trkpt lat="44.46754" lon="2.71365">
        <ele>536.03</ele>
        <time>2021-11-18T12:31:40.935Z</time>
      </trkpt>
      <trkpt lat="44.46758" lon="2.71376">
        <ele>535.56</ele>
        <time>2021-11-18T12:31:50.435Z</time>
      </trkpt>
      <trkpt lat="44.46766" lon="2.71386">
        <ele>561.59</ele>
        <time>2021-11-18T12:31:59.714Z</time>
      </trkpt>
      <trkpt lat="44.46775" lon="2.71396">
        <ele>563.59</ele>
        <time>2021-11-18T12:32:09.652Z</time>
      </trkpt>
      <trkpt lat="44.46779" lon="2.71406">
        <ele>527.74</ele>
        <time>2021-11-18T12:32:19.000Z</time>
      </trkpt>
      <trkpt lat="44.46785" lon="2.71417">
        <ele>547.29</ele>
        <time>2021-11-18T12:32:29.000Z</time>
      </trkpt>
      <trkpt lat="44.46795" lon="2.71428">
        <ele>527.97</ele>
        <time>2021-11-18T12:32:38.605Z</time>
      </trkpt>
      <trkpt lat="44.46804" lon="2.71443">
        <ele>539.95</ele>
        <time>2021-11-18T12:32:48.066Z</time>
      </trkpt>
      <trkpt lat="44.46811" lon="2.71455">
        <ele>531.52</ele>
        <time>2021-11-18T12:32:57.414Z</time>
      </trkpt>
      <trkpt lat="44.46821" lon="2.71463">
        <ele>526.89</ele>
        <time>2021-11-18T12:33:06.688Z</time>
      </trkpt>
      <trkpt lat="44.46828" lon="2.71474">
        <ele>524.36</ele>
        <time>2021-11-18T12:33:15.747Z</time>
      </trkpt>
      <trkpt lat="44.46834" lon="2.71484">
        <ele>530.33</ele>
        <time>2021-11-18T12:33:25.000Z</time>
      </trkpt>
      <trkpt lat="44.4684" lon="2.71496">
        <ele>522.1</ele>
        <time>2021-11-18T12:33:34.121Z</time>
      </trkpt>
      <trkpt lat="44.46847" lon="2.71508">
        <ele>530.52</ele>
        <time>2021-11-18T12:33:43.957Z</time>
      </trkpt>
      <trkpt lat="44.46851" lon="2.71507">
        <ele>530.15</ele>
        <time>2021-11-18T12:33:53.069Z</time>
      </trkpt>
      <trkpt lat="44.46859" lon="2.71498">
        <ele>543.12</ele>
        <time>2021-11-18T12:34:03.000Z</time>
      </trkpt>
      <trkpt lat="44.46868" lon="2.7149">
        <ele>541.77</ele>
        <time>2021-11-18T12:34:13.000Z</time>
      </trkpt>
      <trkpt lat="44.46875" lon="2.71481">
        <ele>551.06</ele>
        <time>2021-11-18T12:34:23.072Z</time>
      </trkpt>
      <trkpt lat="44.46884" lon="2.71465">
        <ele>521.73</ele>
        <time>2021-11-18T12:34:34.000Z</time>
      </trkpt>
      <trkpt lat="44.46891" lon="2.71458">
        <ele>548.45</ele>
        <time>2021-11-18T12:34:43.071Z</time>
      </trkpt>
      <trkpt lat="44.46902" lon="2.71456">
        <ele>539.08</ele>
        <time>2021-11-18T12:34:52.465Z</time>
      </trkpt>
      <trkpt lat="44.4691" lon="2.71449">
        <ele>539.11</ele>
        <time>2021-11-18T12:35:01.528Z</time>
      </trkpt>
      <trkpt lat="44.4691" lon="2.71448">
        <ele>538.04</ele>
        <time>2021-11-18T12:35:11.000Z</time>
      </trkpt>
      <trkpt lat="44.46905" lon="2.7145">
        <ele>534.18</ele>
        <time>2021-11-18T12:35:21.000Z</time>
      </trkpt>
      <trkpt lat="44.46908" lon="2.71445">
        <ele>528.19</ele>
        <time>2021-11-18T12:35:31.000Z</time>
      </trkpt>
      <trkpt lat="44.4691" lon="2.71445">
        <ele>527.55</ele>
        <time>2021-11-18T12:35:41.000Z</time>
      </trkpt>
      <trkpt lat="44.46913" lon="2.71445">
        <ele>527.38</ele>
        <time>2021-11-18T12:35:51.000Z</time>
      </trkpt>
      <trkpt lat="44.46915" lon="2.71445">
        <ele>535.71</ele>
        <time>2021-11-18T12:36:01.000Z</time>
      </trkpt>
      <trkpt lat="44.46916" lon="2.71447">
        <ele>530.1</ele>
        <time>2021-11-18T12:36:13.000Z</time>
      </trkpt>
      <trkpt lat="44.46913" lon="2.71448">
        <ele>527.92</ele>
        <time>2021-11-18T12:36:23.000Z</time>
      </trkpt>
      <trkpt lat="44.46915" lon="2.71447">
        <ele>513.05</ele>
        <time>2021-11-18T12:36:33.000Z</time>
      </trkpt>
      <trkpt lat="44.46914" lon="2.71445">
        <ele>529.57</ele>
        <time>2021-11-18T12:36:43.000Z</time>
      </trkpt>
      <trkpt lat="44.46911" lon="2.71448">
        <ele>514.74</ele>
        <time>2021-11-18T12:36:53.000Z</time>
      </trkpt>
      <trkpt lat="44.46912" lon="2.71447">
        <ele>531.01</ele>
        <time>2021-11-18T12:37:03.000Z</time>
      </trkpt>
      <trkpt lat="44.46907" lon="2.71444">
        <ele>515.45</ele>
        <time>2021-11-18T12:37:13.000Z</time>
      </trkpt>
      <trkpt lat="44.46909" lon="2.71445">
        <ele>539.94</ele>
        <time>2021-11-18T12:37:23.000Z</time>
      </trkpt>
      <trkpt lat="44.46899" lon="2.71444">
        <ele>532.59</ele>
        <time>2021-11-18T12:37:33.077Z</time>
      </trkpt>
      <trkpt lat="44.46894" lon="2.71449">
        <ele>533.78</ele>
        <time>2021-11-18T12:37:43.000Z</time>
      </trkpt>
      <trkpt lat="44.46891" lon="2.7145">
        <ele>536.42</ele>
        <time>2021-11-18T12:37:53.000Z</time>
      </trkpt>
      <trkpt lat="44.46891" lon="2.71451">
        <ele>541.27</ele>
        <time>2021-11-18T12:38:03.000Z</time>
      </trkpt>
      <trkpt lat="44.46892" lon="2.71446">
        <ele>537.71</ele>
        <time>2021-11-18T12:38:13.000Z</time>
      </trkpt>
      <trkpt lat="44.46891" lon="2.71449">
        <ele>522.33</ele>
        <time>2021-11-18T12:38:23.000Z</time>
      </trkpt>
      <trkpt lat="44.4689" lon="2.71454">
        <ele>518.13</ele>
        <time>2021-11-18T12:38:33.000Z</time>
      </trkpt>
      <trkpt lat="44.4689" lon="2.7145">
        <ele>517.15</ele>
        <time>2021-11-18T12:38:43.000Z</time>
      </trkpt>
      <trkpt lat="44.46892" lon="2.7145">
        <ele>517.17</ele>
        <time>2021-11-18T12:38:53.000Z</time>
      </trkpt>
      <trkpt lat="44.46891" lon="2.71451">
        <ele>540.48</ele>
        <time>2021-11-18T12:39:27.000Z</time>
      </trkpt>
      <trkpt lat="44.46892" lon="2.7145">
        <ele>530</ele>
        <time>2021-11-18T12:39:37.000Z</time>
      </trkpt>
      <trkpt lat="44.46893" lon="2.71451">
        <ele>541.98</ele>
        <time>2021-11-18T12:41:04.000Z</time>
      </trkpt>
      <trkpt lat="44.46892" lon="2.71456">
        <ele>531.53</ele>
        <time>2021-11-18T12:41:14.000Z</time>
      </trkpt>
      <trkpt lat="44.46886" lon="2.71466">
        <ele>536.22</ele>
        <time>2021-11-18T12:41:24.000Z</time>
      </trkpt>
      <trkpt lat="44.46878" lon="2.71477">
        <ele>531.24</ele>
        <time>2021-11-18T12:41:34.000Z</time>
      </trkpt>
      <trkpt lat="44.46867" lon="2.71487">
        <ele>536.88</ele>
        <time>2021-11-18T12:41:43.743Z</time>
      </trkpt>
      <trkpt lat="44.46858" lon="2.71496">
        <ele>552.05</ele>
        <time>2021-11-18T12:41:53.482Z</time>
      </trkpt>
      <trkpt lat="44.46848" lon="2.71504">
        <ele>535.56</ele>
        <time>2021-11-18T12:42:04.000Z</time>
      </trkpt>
      <trkpt lat="44.46842" lon="2.71511">
        <ele>538.56</ele>
        <time>2021-11-18T12:42:13.803Z</time>
      </trkpt>
      <trkpt lat="44.46834" lon="2.71521">
        <ele>534.47</ele>
        <time>2021-11-18T12:42:23.084Z</time>
      </trkpt>
      <trkpt lat="44.46828" lon="2.71534">
        <ele>542.42</ele>
        <time>2021-11-18T12:42:32.922Z</time>
      </trkpt>
      <trkpt lat="44.46822" lon="2.71547">
        <ele>554.98</ele>
        <time>2021-11-18T12:42:42.224Z</time>
      </trkpt>
      <trkpt lat="44.4682" lon="2.71559">
        <ele>540.13</ele>
        <time>2021-11-18T12:42:51.583Z</time>
      </trkpt>
      <trkpt lat="44.46828" lon="2.71568">
        <ele>535.24</ele>
        <time>2021-11-18T12:43:01.000Z</time>
      </trkpt>
      <trkpt lat="44.4684" lon="2.71574">
        <ele>535.77</ele>
        <time>2021-11-18T12:43:10.464Z</time>
      </trkpt>
      <trkpt lat="44.46847" lon="2.71582">
        <ele>538.24</ele>
        <time>2021-11-18T12:43:20.505Z</time>
      </trkpt>
      <trkpt lat="44.46856" lon="2.71582">
        <ele>536.4</ele>
        <time>2021-11-18T12:43:29.705Z</time>
      </trkpt>
      <trkpt lat="44.46864" lon="2.71586">
        <ele>529.14</ele>
        <time>2021-11-18T12:43:38.724Z</time>
      </trkpt>
      <trkpt lat="44.46866" lon="2.71589">
        <ele>538.61</ele>
        <time>2021-11-18T12:43:48.000Z</time>
      </trkpt>
      <trkpt lat="44.46872" lon="2.71588">
        <ele>538.57</ele>
        <time>2021-11-18T12:43:57.524Z</time>
      </trkpt>
      <trkpt lat="44.46885" lon="2.71592">
        <ele>535.16</ele>
        <time>2021-11-18T12:44:06.625Z</time>
      </trkpt>
      <trkpt lat="44.46893" lon="2.71597">
        <ele>535.79</ele>
        <time>2021-11-18T12:44:16.000Z</time>
      </trkpt>
      <trkpt lat="44.46898" lon="2.71609">
        <ele>547.15</ele>
        <time>2021-11-18T12:44:25.304Z</time>
      </trkpt>
      <trkpt lat="44.46898" lon="2.71614">
        <ele>546.27</ele>
        <time>2021-11-18T12:44:35.000Z</time>
      </trkpt>
      <trkpt lat="44.46899" lon="2.71613">
        <ele>528.99</ele>
        <time>2021-11-18T12:45:07.000Z</time>
      </trkpt>
      <trkpt lat="44.46904" lon="2.7162">
        <ele>534.25</ele>
        <time>2021-11-18T12:45:16.345Z</time>
      </trkpt>
      <trkpt lat="44.46912" lon="2.71625">
        <ele>532.78</ele>
        <time>2021-11-18T12:45:25.443Z</time>
      </trkpt>
      <trkpt lat="44.46917" lon="2.71634">
        <ele>521.02</ele>
        <time>2021-11-18T12:45:35.000Z</time>
      </trkpt>
      <trkpt lat="44.46925" lon="2.71642">
        <ele>522.93</ele>
        <time>2021-11-18T12:45:44.785Z</time>
      </trkpt>
      <trkpt lat="44.46931" lon="2.71649">
        <ele>538.63</ele>
        <time>2021-11-18T12:45:55.000Z</time>
      </trkpt>
      <trkpt lat="44.46932" lon="2.71648">
        <ele>541.27</ele>
        <time>2021-11-18T12:46:18.000Z</time>
      </trkpt>
      <trkpt lat="44.46933" lon="2.71648">
        <ele>531.86</ele>
        <time>2021-11-18T12:47:02.000Z</time>
      </trkpt>
      <trkpt lat="44.46941" lon="2.71655">
        <ele>543.33</ele>
        <time>2021-11-18T12:47:11.462Z</time>
      </trkpt>
      <trkpt lat="44.46952" lon="2.71658">
        <ele>532.76</ele>
        <time>2021-11-18T12:47:20.925Z</time>
      </trkpt>
      <trkpt lat="44.46961" lon="2.71662">
        <ele>530.63</ele>
        <time>2021-11-18T12:47:30.265Z</time>
      </trkpt>
      <trkpt lat="44.46971" lon="2.71667">
        <ele>517.87</ele>
        <time>2021-11-18T12:47:39.783Z</time>
      </trkpt>
      <trkpt lat="44.46977" lon="2.7167">
        <ele>532.16</ele>
        <time>2021-11-18T12:47:49.000Z</time>
      </trkpt>
      <trkpt lat="44.46979" lon="2.71671">
        <ele>525.22</ele>
        <time>2021-11-18T12:48:14.395Z</time>
      </trkpt>
      <trkpt lat="44.46989" lon="2.71673">
        <ele>524.83</ele>
        <time>2021-11-18T12:48:23.445Z</time>
      </trkpt>
      <trkpt lat="44.46997" lon="2.71682">
        <ele>536.25</ele>
        <time>2021-11-18T12:48:32.703Z</time>
      </trkpt>
      <trkpt lat="44.47004" lon="2.71692">
        <ele>535.47</ele>
        <time>2021-11-18T12:48:41.784Z</time>
      </trkpt>
      <trkpt lat="44.47013" lon="2.71702">
        <ele>543.12</ele>
        <time>2021-11-18T12:48:51.664Z</time>
      </trkpt>
      <trkpt lat="44.47022" lon="2.7171">
        <ele>539.43</ele>
        <time>2021-11-18T12:49:00.942Z</time>
      </trkpt>
      <trkpt lat="44.4703" lon="2.71718">
        <ele>537</ele>
        <time>2021-11-18T12:49:10.643Z</time>
      </trkpt>
      <trkpt lat="44.47038" lon="2.71723">
        <ele>525.4</ele>
        <time>2021-11-18T12:49:21.000Z</time>
      </trkpt>
      <trkpt lat="44.47046" lon="2.71722">
        <ele>519.56</ele>
        <time>2021-11-18T12:49:31.000Z</time>
      </trkpt>
      <trkpt lat="44.4705" lon="2.71721">
        <ele>526.27</ele>
        <time>2021-11-18T12:49:41.000Z</time>
      </trkpt>
      <trkpt lat="44.4705" lon="2.71723">
        <ele>525.06</ele>
        <time>2021-11-18T12:50:10.000Z</time>
      </trkpt>
      <trkpt lat="44.47056" lon="2.71732">
        <ele>523.15</ele>
        <time>2021-11-18T12:50:19.773Z</time>
      </trkpt>
      <trkpt lat="44.47059" lon="2.71742">
        <ele>515.39</ele>
        <time>2021-11-18T12:50:30.000Z</time>
      </trkpt>
      <trkpt lat="44.47066" lon="2.7175">
        <ele>525.65</ele>
        <time>2021-11-18T12:50:39.061Z</time>
      </trkpt>
      <trkpt lat="44.47072" lon="2.71755">
        <ele>514.65</ele>
        <time>2021-11-18T12:50:49.000Z</time>
      </trkpt>
      <trkpt lat="44.47077" lon="2.71762">
        <ele>537.32</ele>
        <time>2021-11-18T12:50:58.545Z</time>
      </trkpt>
      <trkpt lat="44.47087" lon="2.71766">
        <ele>538.63</ele>
        <time>2021-11-18T12:51:08.055Z</time>
      </trkpt>
      <trkpt lat="44.47096" lon="2.71761">
        <ele>524.24</ele>
        <time>2021-11-18T12:51:19.000Z</time>
      </trkpt>
      <trkpt lat="44.47094" lon="2.71761">
        <ele>513.66</ele>
        <time>2021-11-18T12:51:29.000Z</time>
      </trkpt>
      <trkpt lat="44.47092" lon="2.7176">
        <ele>520.65</ele>
        <time>2021-11-18T12:51:39.000Z</time>
      </trkpt>
      <trkpt lat="44.47094" lon="2.71759">
        <ele>511.1</ele>
        <time>2021-11-18T12:51:57.000Z</time>
      </trkpt>
      <trkpt lat="44.47094" lon="2.71758">
        <ele>517.58</ele>
        <time>2021-11-18T12:52:07.000Z</time>
      </trkpt>
      <trkpt lat="44.47093" lon="2.71756">
        <ele>537.25</ele>
        <time>2021-11-18T12:52:17.000Z</time>
      </trkpt>
      <trkpt lat="44.47092" lon="2.71753">
        <ele>513.26</ele>
        <time>2021-11-18T12:52:27.000Z</time>
      </trkpt>
      <trkpt lat="44.47093" lon="2.71756">
        <ele>522.25</ele>
        <time>2021-11-18T12:52:37.000Z</time>
      </trkpt>
      <trkpt lat="44.47099" lon="2.71768">
        <ele>524.22</ele>
        <time>2021-11-18T12:52:46.619Z</time>
      </trkpt>
      <trkpt lat="44.47102" lon="2.71767">
        <ele>532.72</ele>
        <time>2021-11-18T12:52:56.000Z</time>
      </trkpt>
      <trkpt lat="44.47104" lon="2.71766">
        <ele>521.51</ele>
        <time>2021-11-18T12:53:06.000Z</time>
      </trkpt>
      <trkpt lat="44.47105" lon="2.71766">
        <ele>524.92</ele>
        <time>2021-11-18T12:53:16.000Z</time>
      </trkpt>
      <trkpt lat="44.47107" lon="2.71769">
        <ele>520.43</ele>
        <time>2021-11-18T12:53:26.000Z</time>
      </trkpt>
      <trkpt lat="44.47108" lon="2.71773">
        <ele>521.12</ele>
        <time>2021-11-18T12:53:37.000Z</time>
      </trkpt>
      <trkpt lat="44.47112" lon="2.71767">
        <ele>509.55</ele>
        <time>2021-11-18T12:53:47.000Z</time>
      </trkpt>
      <trkpt lat="44.4711" lon="2.71756">
        <ele>503.33</ele>
        <time>2021-11-18T12:53:57.000Z</time>
      </trkpt>
      <trkpt lat="44.47113" lon="2.71756">
        <ele>533.26</ele>
        <time>2021-11-18T12:54:07.000Z</time>
      </trkpt>
      <trkpt lat="44.47108" lon="2.71762">
        <ele>524.56</ele>
        <time>2021-11-18T12:54:17.000Z</time>
      </trkpt>
      <trkpt lat="44.47106" lon="2.71769">
        <ele>517.51</ele>
        <time>2021-11-18T12:54:27.000Z</time>
      </trkpt>
      <trkpt lat="44.47115" lon="2.71756">
        <ele>519.52</ele>
        <time>2021-11-18T12:54:38.000Z</time>
      </trkpt>
      <trkpt lat="44.47116" lon="2.71754">
        <ele>520.47</ele>
        <time>2021-11-18T12:54:48.000Z</time>
      </trkpt>
      <trkpt lat="44.47114" lon="2.71738">
        <ele>529.69</ele>
        <time>2021-11-18T12:54:57.713Z</time>
      </trkpt>
      <trkpt lat="44.47108" lon="2.71733">
        <ele>508.57</ele>
        <time>2021-11-18T12:55:07.000Z</time>
      </trkpt>
      <trkpt lat="44.47099" lon="2.71733">
        <ele>518.09</ele>
        <time>2021-11-18T12:55:17.000Z</time>
      </trkpt>
      <trkpt lat="44.4709" lon="2.71744">
        <ele>528.67</ele>
        <time>2021-11-18T12:55:27.000Z</time>
      </trkpt>
      <trkpt lat="44.4709" lon="2.71766">
        <ele>503.74</ele>
        <time>2021-11-18T12:55:37.000Z</time>
      </trkpt>
      <trkpt lat="44.47088" lon="2.71771">
        <ele>506.87</ele>
        <time>2021-11-18T12:55:47.000Z</time>
      </trkpt>
      <trkpt lat="44.47088" lon="2.71774">
        <ele>511.08</ele>
        <time>2021-11-18T12:55:57.000Z</time>
      </trkpt>
      <trkpt lat="44.47089" lon="2.71775">
        <ele>514.58</ele>
        <time>2021-11-18T12:56:20.000Z</time>
      </trkpt>
      <trkpt lat="44.47089" lon="2.71779">
        <ele>516.14</ele>
        <time>2021-11-18T12:56:29.958Z</time>
      </trkpt>
      <trkpt lat="44.47091" lon="2.71781">
        <ele>504.99</ele>
        <time>2021-11-18T12:56:39.000Z</time>
      </trkpt>
      <trkpt lat="44.47091" lon="2.71782">
        <ele>510.5</ele>
        <time>2021-11-18T12:56:53.000Z</time>
      </trkpt>
      <trkpt lat="44.4709" lon="2.71785">
        <ele>504.32</ele>
        <time>2021-11-18T12:57:03.000Z</time>
      </trkpt>
      <trkpt lat="44.47091" lon="2.7178">
        <ele>508.47</ele>
        <time>2021-11-18T12:57:13.000Z</time>
      </trkpt>
      <trkpt lat="44.47093" lon="2.71779">
        <ele>519.21</ele>
        <time>2021-11-18T12:57:23.000Z</time>
      </trkpt>
      <trkpt lat="44.47094" lon="2.71783">
        <ele>514.12</ele>
        <time>2021-11-18T12:57:32.671Z</time>
      </trkpt>
      <trkpt lat="44.47094" lon="2.71782">
        <ele>510.96</ele>
        <time>2021-11-18T12:57:42.000Z</time>
      </trkpt>
      <trkpt lat="44.47093" lon="2.71784">
        <ele>501.11</ele>
        <time>2021-11-18T12:57:53.000Z</time>
      </trkpt>
      <trkpt lat="44.47093" lon="2.71785">
        <ele>504.16</ele>
        <time>2021-11-18T12:58:06.000Z</time>
      </trkpt>
      <trkpt lat="44.47094" lon="2.71785">
        <ele>515.55</ele>
        <time>2021-11-18T12:58:16.000Z</time>
      </trkpt>
      <trkpt lat="44.47095" lon="2.71784">
        <ele>501.4</ele>
        <time>2021-11-18T12:58:25.472Z</time>
      </trkpt>
      <trkpt lat="44.47093" lon="2.71785">
        <ele>514.94</ele>
        <time>2021-11-18T12:58:35.000Z</time>
      </trkpt>
      <trkpt lat="44.47095" lon="2.71784">
        <ele>510.16</ele>
        <time>2021-11-18T12:58:45.000Z</time>
      </trkpt>
      <trkpt lat="44.47097" lon="2.7178">
        <ele>509.02</ele>
        <time>2021-11-18T12:58:55.000Z</time>
      </trkpt>
      <trkpt lat="44.47098" lon="2.71775">
        <ele>520.19</ele>
        <time>2021-11-18T12:59:05.000Z</time>
      </trkpt>
      <trkpt lat="44.47101" lon="2.71776">
        <ele>519.03</ele>
        <time>2021-11-18T12:59:15.000Z</time>
      </trkpt>
      <trkpt lat="44.47102" lon="2.71772">
        <ele>516.67</ele>
        <time>2021-11-18T12:59:25.000Z</time>
      </trkpt>
      <trkpt lat="44.47103" lon="2.71769">
        <ele>525.67</ele>
        <time>2021-11-18T12:59:35.000Z</time>
      </trkpt>
      <trkpt lat="44.47103" lon="2.71768">
        <ele>528.13</ele>
        <time>2021-11-18T12:59:45.000Z</time>
      </trkpt>
      <trkpt lat="44.47106" lon="2.71766">
        <ele>538.47</ele>
        <time>2021-11-18T13:00:00.000Z</time>
      </trkpt>
      <trkpt lat="44.47107" lon="2.71765">
        <ele>544.53</ele>
        <time>2021-11-18T13:00:10.000Z</time>
      </trkpt>
      <trkpt lat="44.47108" lon="2.71764">
        <ele>532.83</ele>
        <time>2021-11-18T13:00:39.000Z</time>
      </trkpt>
      <trkpt lat="44.47108" lon="2.71763">
        <ele>540.47</ele>
        <time>2021-11-18T13:01:56.000Z</time>
      </trkpt>
      <trkpt lat="44.47107" lon="2.71764">
        <ele>526.43</ele>
        <time>2021-11-18T13:02:06.000Z</time>
      </trkpt>
      <trkpt lat="44.47106" lon="2.71762">
        <ele>519.89</ele>
        <time>2021-11-18T13:02:16.000Z</time>
      </trkpt>
      <trkpt lat="44.47105" lon="2.71764">
        <ele>521.44</ele>
        <time>2021-11-18T13:02:26.000Z</time>
      </trkpt>
      <trkpt lat="44.47107" lon="2.71764">
        <ele>527.41</ele>
        <time>2021-11-18T13:02:36.000Z</time>
      </trkpt>
      <trkpt lat="44.47114" lon="2.71767">
        <ele>523.12</ele>
        <time>2021-11-18T13:02:46.000Z</time>
      </trkpt>
      <trkpt lat="44.4712" lon="2.7177">
        <ele>538.18</ele>
        <time>2021-11-18T13:02:56.000Z</time>
      </trkpt>
      <trkpt lat="44.47126" lon="2.71775">
        <ele>521.72</ele>
        <time>2021-11-18T13:03:06.000Z</time>
      </trkpt>
      <trkpt lat="44.47132" lon="2.71779">
        <ele>524.17</ele>
        <time>2021-11-18T13:03:15.460Z</time>
      </trkpt>
      <trkpt lat="44.47136" lon="2.71782">
        <ele>516.38</ele>
        <time>2021-11-18T13:03:25.000Z</time>
      </trkpt>
      <trkpt lat="44.47142" lon="2.71786">
        <ele>508.78</ele>
        <time>2021-11-18T13:03:34.481Z</time>
      </trkpt>
      <trkpt lat="44.47146" lon="2.71789">
        <ele>523.26</ele>
        <time>2021-11-18T13:03:44.000Z</time>
      </trkpt>
      <trkpt lat="44.47148" lon="2.71792">
        <ele>531.21</ele>
        <time>2021-11-18T13:03:53.480Z</time>
      </trkpt>
      <trkpt lat="44.4715" lon="2.71792">
        <ele>523.72</ele>
        <time>2021-11-18T13:04:03.000Z</time>
      </trkpt>
      <trkpt lat="44.47149" lon="2.71794">
        <ele>508.94</ele>
        <time>2021-11-18T13:04:13.000Z</time>
      </trkpt>
      <trkpt lat="44.47149" lon="2.71805">
        <ele>529.1</ele>
        <time>2021-11-18T13:04:22.281Z</time>
      </trkpt>
      <trkpt lat="44.47147" lon="2.71816">
        <ele>510.4</ele>
        <time>2021-11-18T13:04:31.580Z</time>
      </trkpt>
      <trkpt lat="44.47146" lon="2.71822">
        <ele>516.65</ele>
        <time>2021-11-18T13:04:42.000Z</time>
      </trkpt>
      <trkpt lat="44.47146" lon="2.71831">
        <ele>511.92</ele>
        <time>2021-11-18T13:04:53.000Z</time>
      </trkpt>
      <trkpt lat="44.47149" lon="2.71837">
        <ele>512.81</ele>
        <time>2021-11-18T13:05:03.000Z</time>
      </trkpt>
      <trkpt lat="44.47151" lon="2.71845">
        <ele>516.99</ele>
        <time>2021-11-18T13:05:14.000Z</time>
      </trkpt>
      <trkpt lat="44.4715" lon="2.71849">
        <ele>503.58</ele>
        <time>2021-11-18T13:05:25.000Z</time>
      </trkpt>
      <trkpt lat="44.47149" lon="2.71853">
        <ele>521.48</ele>
        <time>2021-11-18T13:05:35.000Z</time>
      </trkpt>
      <trkpt lat="44.4715" lon="2.71854">
        <ele>516.35</ele>
        <time>2021-11-18T13:05:45.000Z</time>
      </trkpt>
      <trkpt lat="44.4715" lon="2.7186">
        <ele>502.21</ele>
        <time>2021-11-18T13:05:56.000Z</time>
      </trkpt>
      <trkpt lat="44.4715" lon="2.71862">
        <ele>506.46</ele>
        <time>2021-11-18T13:06:05.720Z</time>
      </trkpt>
      <trkpt lat="44.47149" lon="2.71864">
        <ele>502.82</ele>
        <time>2021-11-18T13:06:17.000Z</time>
      </trkpt>
      <trkpt lat="44.47146" lon="2.7187">
        <ele>510.72</ele>
        <time>2021-11-18T13:06:27.000Z</time>
      </trkpt>
      <trkpt lat="44.47142" lon="2.71876">
        <ele>503.56</ele>
        <time>2021-11-18T13:06:36.200Z</time>
      </trkpt>
      <trkpt lat="44.47141" lon="2.71876">
        <ele>504.2</ele>
        <time>2021-11-18T13:06:46.000Z</time>
      </trkpt>
      <trkpt lat="44.47142" lon="2.71876">
        <ele>502.64</ele>
        <time>2021-11-18T13:06:56.000Z</time>
      </trkpt>
      <trkpt lat="44.47145" lon="2.71875">
        <ele>493.17</ele>
        <time>2021-11-18T13:07:06.000Z</time>
      </trkpt>
      <trkpt lat="44.4715" lon="2.71874">
        <ele>509.4</ele>
        <time>2021-11-18T13:07:16.000Z</time>
      </trkpt>
      <trkpt lat="44.47151" lon="2.71869">
        <ele>481.17</ele>
        <time>2021-11-18T13:07:26.000Z</time>
      </trkpt>
      <trkpt lat="44.47155" lon="2.71873">
        <ele>478.41</ele>
        <time>2021-11-18T13:07:35.548Z</time>
      </trkpt>
      <trkpt lat="44.47154" lon="2.7188">
        <ele>494.55</ele>
        <time>2021-11-18T13:07:45.308Z</time>
      </trkpt>
      <trkpt lat="44.47145" lon="2.71882">
        <ele>491.37</ele>
        <time>2021-11-18T13:07:54.708Z</time>
      </trkpt>
      <trkpt lat="44.47137" lon="2.71886">
        <ele>472.29</ele>
        <time>2021-11-18T13:08:05.000Z</time>
      </trkpt>
      <trkpt lat="44.47123" lon="2.71885">
        <ele>480.91</ele>
        <time>2021-11-18T13:08:14.327Z</time>
      </trkpt>
      <trkpt lat="44.47112" lon="2.71878">
        <ele>497.29</ele>
        <time>2021-11-18T13:08:24.000Z</time>
      </trkpt>
      <trkpt lat="44.47102" lon="2.71871">
        <ele>499.72</ele>
        <time>2021-11-18T13:08:33.527Z</time>
      </trkpt>
      <trkpt lat="44.47095" lon="2.71868">
        <ele>477.99</ele>
        <time>2021-11-18T13:08:42.726Z</time>
      </trkpt>
      <trkpt lat="44.47086" lon="2.7186">
        <ele>484.27</ele>
        <time>2021-11-18T13:08:51.748Z</time>
      </trkpt>
      <trkpt lat="44.47077" lon="2.71846">
        <ele>494.15</ele>
        <time>2021-11-18T13:09:01.786Z</time>
      </trkpt>
      <trkpt lat="44.47069" lon="2.71836">
        <ele>474.43</ele>
        <time>2021-11-18T13:09:10.787Z</time>
      </trkpt>
      <trkpt lat="44.47059" lon="2.71834">
        <ele>482.56</ele>
        <time>2021-11-18T13:09:20.225Z</time>
      </trkpt>
      <trkpt lat="44.4705" lon="2.71832">
        <ele>488.08</ele>
        <time>2021-11-18T13:09:29.528Z</time>
      </trkpt>
      <trkpt lat="44.47042" lon="2.71835">
        <ele>488.26</ele>
        <time>2021-11-18T13:09:38.748Z</time>
      </trkpt>
      <trkpt lat="44.47033" lon="2.71834">
        <ele>483.01</ele>
        <time>2021-11-18T13:09:48.000Z</time>
      </trkpt>
      <trkpt lat="44.47027" lon="2.7185">
        <ele>502.22</ele>
        <time>2021-11-18T13:09:57.468Z</time>
      </trkpt>
      <trkpt lat="44.47024" lon="2.71862">
        <ele>506.69</ele>
        <time>2021-11-18T13:10:07.000Z</time>
      </trkpt>
      <trkpt lat="44.47022" lon="2.71879">
        <ele>498.64</ele>
        <time>2021-11-18T13:10:16.146Z</time>
      </trkpt>
      <trkpt lat="44.47015" lon="2.71879">
        <ele>501.03</ele>
        <time>2021-11-18T13:10:25.905Z</time>
      </trkpt>
      <trkpt lat="44.47014" lon="2.71867">
        <ele>509.28</ele>
        <time>2021-11-18T13:10:35.507Z</time>
      </trkpt>
      <trkpt lat="44.47011" lon="2.71853">
        <ele>482.39</ele>
        <time>2021-11-18T13:10:44.667Z</time>
      </trkpt>
      <trkpt lat="44.47007" lon="2.71842">
        <ele>489.78</ele>
        <time>2021-11-18T13:10:55.000Z</time>
      </trkpt>
      <trkpt lat="44.47002" lon="2.71826">
        <ele>493.44</ele>
        <time>2021-11-18T13:11:04.826Z</time>
      </trkpt>
      <trkpt lat="44.46998" lon="2.71814">
        <ele>495.48</ele>
        <time>2021-11-18T13:11:14.127Z</time>
      </trkpt>
      <trkpt lat="44.46992" lon="2.71805">
        <ele>503.35</ele>
        <time>2021-11-18T13:11:23.708Z</time>
      </trkpt>
      <trkpt lat="44.46986" lon="2.71797">
        <ele>509.52</ele>
        <time>2021-11-18T13:11:33.000Z</time>
      </trkpt>
      <trkpt lat="44.46979" lon="2.7179">
        <ele>499.54</ele>
        <time>2021-11-18T13:11:43.000Z</time>
      </trkpt>
      <trkpt lat="44.4697" lon="2.71777">
        <ele>501.48</ele>
        <time>2021-11-18T13:11:52.885Z</time>
      </trkpt>
      <trkpt lat="44.46961" lon="2.7177">
        <ele>517.05</ele>
        <time>2021-11-18T13:12:02.866Z</time>
      </trkpt>
      <trkpt lat="44.46959" lon="2.71767">
        <ele>509.32</ele>
        <time>2021-11-18T13:12:12.000Z</time>
      </trkpt>
      <trkpt lat="44.46954" lon="2.7176">
        <ele>482.15</ele>
        <time>2021-11-18T13:12:21.847Z</time>
      </trkpt>
      <trkpt lat="44.46947" lon="2.71761">
        <ele>521.48</ele>
        <time>2021-11-18T13:12:32.000Z</time>
      </trkpt>
      <trkpt lat="44.46939" lon="2.71761">
        <ele>514.64</ele>
        <time>2021-11-18T13:12:41.405Z</time>
      </trkpt>
      <trkpt lat="44.46934" lon="2.71763">
        <ele>504.39</ele>
        <time>2021-11-18T13:12:50.830Z</time>
      </trkpt>
      <trkpt lat="44.46928" lon="2.71767">
        <ele>511.05</ele>
        <time>2021-11-18T13:13:01.000Z</time>
      </trkpt>
      <trkpt lat="44.46919" lon="2.71773">
        <ele>516.07</ele>
        <time>2021-11-18T13:13:10.366Z</time>
      </trkpt>
      <trkpt lat="44.46912" lon="2.71779">
        <ele>515.56</ele>
        <time>2021-11-18T13:13:19.388Z</time>
      </trkpt>
      <trkpt lat="44.4691" lon="2.71779">
        <ele>499.03</ele>
        <time>2021-11-18T13:13:29.000Z</time>
      </trkpt>
      <trkpt lat="44.46909" lon="2.71781">
        <ele>516.04</ele>
        <time>2021-11-18T13:13:59.000Z</time>
      </trkpt>
      <trkpt lat="44.46915" lon="2.71789">
        <ele>513.44</ele>
        <time>2021-11-18T13:14:10.000Z</time>
      </trkpt>
      <trkpt lat="44.46919" lon="2.7179">
        <ele>506.1</ele>
        <time>2021-11-18T13:14:19.227Z</time>
      </trkpt>
      <trkpt lat="44.46928" lon="2.71795">
        <ele>521.09</ele>
        <time>2021-11-18T13:14:28.349Z</time>
      </trkpt>
      <trkpt lat="44.46936" lon="2.718">
        <ele>512.92</ele>
        <time>2021-11-18T13:14:38.000Z</time>
      </trkpt>
      <trkpt lat="44.46944" lon="2.71811">
        <ele>523.15</ele>
        <time>2021-11-18T13:14:47.546Z</time>
      </trkpt>
      <trkpt lat="44.46948" lon="2.7182">
        <ele>521.06</ele>
        <time>2021-11-18T13:14:58.000Z</time>
      </trkpt>
      <trkpt lat="44.46951" lon="2.7183">
        <ele>517.25</ele>
        <time>2021-11-18T13:15:07.446Z</time>
      </trkpt>
      <trkpt lat="44.46954" lon="2.71838">
        <ele>514.12</ele>
        <time>2021-11-18T13:15:17.000Z</time>
      </trkpt>
      <trkpt lat="44.46956" lon="2.71848">
        <ele>534</ele>
        <time>2021-11-18T13:15:27.000Z</time>
      </trkpt>
      <trkpt lat="44.4695" lon="2.7185">
        <ele>521.16</ele>
        <time>2021-11-18T13:15:36.388Z</time>
      </trkpt>
      <trkpt lat="44.46944" lon="2.71843">
        <ele>527.66</ele>
        <time>2021-11-18T13:15:45.408Z</time>
      </trkpt>
      <trkpt lat="44.46938" lon="2.71838">
        <ele>523.44</ele>
        <time>2021-11-18T13:15:55.000Z</time>
      </trkpt>
      <trkpt lat="44.4693" lon="2.7184">
        <ele>515.63</ele>
        <time>2021-11-18T13:16:06.000Z</time>
      </trkpt>
      <trkpt lat="44.46927" lon="2.71841">
        <ele>543.55</ele>
        <time>2021-11-18T13:16:16.000Z</time>
      </trkpt>
      <trkpt lat="44.46926" lon="2.71843">
        <ele>533.21</ele>
        <time>2021-11-18T13:16:28.266Z</time>
      </trkpt>
      <trkpt lat="44.4693" lon="2.71854">
        <ele>537.3</ele>
        <time>2021-11-18T13:16:38.000Z</time>
      </trkpt>
      <trkpt lat="44.46936" lon="2.71866">
        <ele>525.94</ele>
        <time>2021-11-18T13:16:47.468Z</time>
      </trkpt>
      <trkpt lat="44.46942" lon="2.71876">
        <ele>538</ele>
        <time>2021-11-18T13:16:56.806Z</time>
      </trkpt>
      <trkpt lat="44.46946" lon="2.71886">
        <ele>540.72</ele>
        <time>2021-11-18T13:17:06.267Z</time>
      </trkpt>
      <trkpt lat="44.46953" lon="2.71895">
        <ele>549.27</ele>
        <time>2021-11-18T13:17:15.548Z</time>
      </trkpt>
      <trkpt lat="44.46958" lon="2.71904">
        <ele>542.52</ele>
        <time>2021-11-18T13:17:24.765Z</time>
      </trkpt>
      <trkpt lat="44.46964" lon="2.71915">
        <ele>536.09</ele>
        <time>2021-11-18T13:17:35.000Z</time>
      </trkpt>
      <trkpt lat="44.4697" lon="2.71928">
        <ele>537.39</ele>
        <time>2021-11-18T13:17:44.486Z</time>
      </trkpt>
      <trkpt lat="44.46977" lon="2.71936">
        <ele>559.04</ele>
        <time>2021-11-18T13:17:54.000Z</time>
      </trkpt>
      <trkpt lat="44.46984" lon="2.7194">
        <ele>555.96</ele>
        <time>2021-11-18T13:18:03.546Z</time>
      </trkpt>
      <trkpt lat="44.46987" lon="2.71944">
        <ele>579.08</ele>
        <time>2021-11-18T13:18:13.000Z</time>
      </trkpt>
      <trkpt lat="44.46989" lon="2.71948">
        <ele>557.43</ele>
        <time>2021-11-18T13:18:22.627Z</time>
      </trkpt>
      <trkpt lat="44.46993" lon="2.71954">
        <ele>526.57</ele>
        <time>2021-11-18T13:18:32.000Z</time>
      </trkpt>
      <trkpt lat="44.46999" lon="2.7196">
        <ele>552.26</ele>
        <time>2021-11-18T13:18:42.000Z</time>
      </trkpt>
      <trkpt lat="44.47" lon="2.71965">
        <ele>563.68</ele>
        <time>2021-11-18T13:18:52.000Z</time>
      </trkpt>
      <trkpt lat="44.47001" lon="2.71965">
        <ele>539.86</ele>
        <time>2021-11-18T13:19:04.828Z</time>
      </trkpt>
      <trkpt lat="44.47002" lon="2.71965">
        <ele>535.13</ele>
        <time>2021-11-18T13:19:16.000Z</time>
      </trkpt>
      <trkpt lat="44.47001" lon="2.71965">
        <ele>552.43</ele>
        <time>2021-11-18T13:19:30.000Z</time>
      </trkpt>
      <trkpt lat="44.47002" lon="2.71965">
        <ele>544.64</ele>
        <time>2021-11-18T13:19:55.000Z</time>
      </trkpt>
      <trkpt lat="44.47008" lon="2.71967">
        <ele>540.16</ele>
        <time>2021-11-18T13:20:04.765Z</time>
      </trkpt>
      <trkpt lat="44.47008" lon="2.71964">
        <ele>553.6</ele>
        <time>2021-11-18T13:20:14.000Z</time>
      </trkpt>
      <trkpt lat="44.47007" lon="2.71965">
        <ele>544.64</ele>
        <time>2021-11-18T13:23:18.000Z</time>
      </trkpt>
    </trkseg>
  </trk>
</gpx>